<?xml version="1.0" encoding="UTF-8" standalone="no" ?>
<gpx xmlns="http://www.topografix.com/GPX/1/1" xmlns:xsi="http://www.w3.org/2001/XMLSchema-instance" xsi:schemaLocation="http://www.topografix.com/GPX/1/1 http://www.topografix.com/GPX/1/1/gpx.xsd" version="1.1" creator="VisuGPX - https://www.visugpx.com">
  <metadata>
    <name>Ciotat_Conquette_St_Jean</name>
    <desc><![CDATA[Projet: Cette composition de traces n'a pas encore été testée (assemblage de plusieurs sorties).]]></desc>
  </metadata>
  <trk>
    <name><![CDATA[Ciotat_Conquette_St_Jean_1]]></name>
    <trkseg>
      <trkpt lat="43.22213" lon="5.6296">
        <ele>149.62231445312</ele>
        <time>2012-04-27T09:17:18Z</time>
      </trkpt>
      <trkpt lat="43.22234" lon="5.62993">
        <ele>152.50634765625</ele>
        <time>2012-04-27T09:17:34Z</time>
      </trkpt>
      <trkpt lat="43.22263" lon="5.63039">
        <ele>155.87097167969</ele>
        <time>2012-04-27T09:17:55Z</time>
      </trkpt>
      <trkpt lat="43.22282" lon="5.63069">
        <ele>158.27416992188</ele>
        <time>2012-04-27T09:18:08Z</time>
      </trkpt>
      <trkpt lat="43.22306" lon="5.6311">
        <ele>159.23547363281</ele>
        <time>2012-04-27T09:18:25Z</time>
      </trkpt>
      <trkpt lat="43.22321" lon="5.63136">
        <ele>162.11950683594</ele>
        <time>2012-04-27T09:18:37Z</time>
      </trkpt>
      <trkpt lat="43.22341" lon="5.63183">
        <ele>163.5615234375</ele>
        <time>2012-04-27T09:18:57Z</time>
      </trkpt>
      <trkpt lat="43.22346" lon="5.63205">
        <ele>165.48413085938</ele>
        <time>2012-04-27T09:19:06Z</time>
      </trkpt>
      <trkpt lat="43.2236" lon="5.63243">
        <ele>168.36804199219</ele>
        <time>2012-04-27T09:19:23Z</time>
      </trkpt>
      <trkpt lat="43.22363" lon="5.63255">
        <ele>169.32946777344</ele>
        <time>2012-04-27T09:19:29Z</time>
      </trkpt>
      <trkpt lat="43.2237" lon="5.63272">
        <ele>171.73266601562</ele>
        <time>2012-04-27T09:19:38Z</time>
      </trkpt>
      <trkpt lat="43.22389" lon="5.63288">
        <ele>174.61657714844</ele>
        <time>2012-04-27T09:19:53Z</time>
      </trkpt>
      <trkpt lat="43.22419" lon="5.63299">
        <ele>177.98120117188</ele>
        <time>2012-04-27T09:20:14Z</time>
      </trkpt>
      <trkpt lat="43.22425" lon="5.63306">
        <ele>178.94262695312</ele>
        <time>2012-04-27T09:20:19Z</time>
      </trkpt>
      <trkpt lat="43.22439" lon="5.63321">
        <ele>183.26843261719</ele>
        <time>2012-04-27T09:20:32Z</time>
      </trkpt>
      <trkpt lat="43.22441" lon="5.63322">
        <ele>182.78784179688</ele>
        <time>2012-04-27T09:20:33Z</time>
      </trkpt>
      <trkpt lat="43.22467" lon="5.63339">
        <ele>184.22985839844</ele>
        <time>2012-04-27T09:20:53Z</time>
      </trkpt>
      <trkpt lat="43.22489" lon="5.63361">
        <ele>187.59436035156</ele>
        <time>2012-04-27T09:21:11Z</time>
      </trkpt>
      <trkpt lat="43.225" lon="5.6337">
        <ele>189.03637695312</ele>
        <time>2012-04-27T09:21:19Z</time>
      </trkpt>
      <trkpt lat="43.22533" lon="5.63393">
        <ele>190.958984375</ele>
        <time>2012-04-27T09:21:42Z</time>
      </trkpt>
      <trkpt lat="43.2254" lon="5.63407">
        <ele>192.40112304688</ele>
        <time>2012-04-27T09:21:50Z</time>
      </trkpt>
      <trkpt lat="43.22574" lon="5.63436">
        <ele>194.32373046875</ele>
        <time>2012-04-27T09:22:15Z</time>
      </trkpt>
      <trkpt lat="43.22584" lon="5.63463">
        <ele>196.24633789062</ele>
        <time>2012-04-27T09:22:29Z</time>
      </trkpt>
      <trkpt lat="43.22584" lon="5.63475">
        <ele>197.20751953125</ele>
        <time>2012-04-27T09:22:34Z</time>
      </trkpt>
      <trkpt lat="43.2259" lon="5.63518">
        <ele>200.572265625</ele>
        <time>2012-04-27T09:22:50Z</time>
      </trkpt>
      <trkpt lat="43.2259" lon="5.63521">
        <ele>200.09167480469</ele>
        <time>2012-04-27T09:22:51Z</time>
      </trkpt>
      <trkpt lat="43.22592" lon="5.63526">
        <ele>198.64953613281</ele>
        <time>2012-04-27T09:22:53Z</time>
      </trkpt>
      <trkpt lat="43.22597" lon="5.63536">
        <ele>200.572265625</ele>
        <time>2012-04-27T09:22:57Z</time>
      </trkpt>
      <trkpt lat="43.22627" lon="5.63563">
        <ele>203.45617675781</ele>
        <time>2012-04-27T09:23:18Z</time>
      </trkpt>
      <trkpt lat="43.22636" lon="5.63563">
        <ele>205.37878417969</ele>
        <time>2012-04-27T09:23:24Z</time>
      </trkpt>
      <trkpt lat="43.22648" lon="5.63566">
        <ele>206.82067871094</ele>
        <time>2012-04-27T09:23:33Z</time>
      </trkpt>
      <trkpt lat="43.22652" lon="5.63571">
        <ele>207.30139160156</ele>
        <time>2012-04-27T09:23:37Z</time>
      </trkpt>
      <trkpt lat="43.22655" lon="5.636">
        <ele>210.666015625</ele>
        <time>2012-04-27T09:23:51Z</time>
      </trkpt>
      <trkpt lat="43.22661" lon="5.63629">
        <ele>213.55004882812</ele>
        <time>2012-04-27T09:24:07Z</time>
      </trkpt>
      <trkpt lat="43.22666" lon="5.63645">
        <ele>214.99194335938</ele>
        <time>2012-04-27T09:24:16Z</time>
      </trkpt>
      <trkpt lat="43.22671" lon="5.63661">
        <ele>215.47265625</ele>
        <time>2012-04-27T09:24:25Z</time>
      </trkpt>
      <trkpt lat="43.22677" lon="5.63688">
        <ele>218.35656738281</ele>
        <time>2012-04-27T09:24:40Z</time>
      </trkpt>
      <trkpt lat="43.22681" lon="5.63709">
        <ele>218.83728027344</ele>
        <time>2012-04-27T09:24:50Z</time>
      </trkpt>
      <trkpt lat="43.22694" lon="5.63734">
        <ele>222.68249511719</ele>
        <time>2012-04-27T09:25:04Z</time>
      </trkpt>
      <trkpt lat="43.22701" lon="5.63741">
        <ele>222.20178222656</ele>
        <time>2012-04-27T09:25:10Z</time>
      </trkpt>
      <trkpt lat="43.22714" lon="5.63761">
        <ele>225.56652832031</ele>
        <time>2012-04-27T09:25:22Z</time>
      </trkpt>
      <trkpt lat="43.22727" lon="5.63777">
        <ele>228.93115234375</ele>
        <time>2012-04-27T09:25:34Z</time>
      </trkpt>
      <trkpt lat="43.22743" lon="5.63787">
        <ele>230.373046875</ele>
        <time>2012-04-27T09:25:46Z</time>
      </trkpt>
      <trkpt lat="43.22765" lon="5.63803">
        <ele>233.73767089844</ele>
        <time>2012-04-27T09:26:04Z</time>
      </trkpt>
      <trkpt lat="43.22766" lon="5.63804">
        <ele>233.73767089844</ele>
        <time>2012-04-27T09:26:05Z</time>
      </trkpt>
      <trkpt lat="43.22785" lon="5.63822">
        <ele>236.62170410156</ele>
        <time>2012-04-27T09:26:19Z</time>
      </trkpt>
      <trkpt lat="43.22805" lon="5.63849">
        <ele>239.98620605469</ele>
        <time>2012-04-27T09:26:38Z</time>
      </trkpt>
      <trkpt lat="43.22818" lon="5.6388">
        <ele>242.87023925781</ele>
        <time>2012-04-27T09:26:56Z</time>
      </trkpt>
      <trkpt lat="43.22819" lon="5.63883">
        <ele>243.35083007812</ele>
        <time>2012-04-27T09:26:58Z</time>
      </trkpt>
      <trkpt lat="43.2282" lon="5.63929">
        <ele>246.23486328125</ele>
        <time>2012-04-27T09:27:20Z</time>
      </trkpt>
      <trkpt lat="43.22821" lon="5.63931">
        <ele>246.23486328125</ele>
        <time>2012-04-27T09:27:21Z</time>
      </trkpt>
      <trkpt lat="43.22839" lon="5.63956">
        <ele>250.08020019531</ele>
        <time>2012-04-27T09:27:38Z</time>
      </trkpt>
      <trkpt lat="43.22857" lon="5.63986">
        <ele>253.44470214844</ele>
        <time>2012-04-27T09:27:57Z</time>
      </trkpt>
      <trkpt lat="43.22865" lon="5.64001">
        <ele>254.88659667969</ele>
        <time>2012-04-27T09:28:07Z</time>
      </trkpt>
      <trkpt lat="43.22871" lon="5.63991">
        <ele>256.80932617188</ele>
        <time>2012-04-27T09:28:15Z</time>
      </trkpt>
      <trkpt lat="43.22871" lon="5.63977">
        <ele>258.25134277344</ele>
        <time>2012-04-27T09:28:22Z</time>
      </trkpt>
      <trkpt lat="43.22874" lon="5.63948">
        <ele>261.13525390625</ele>
        <time>2012-04-27T09:28:38Z</time>
      </trkpt>
      <trkpt lat="43.22879" lon="5.63907">
        <ele>263.53857421875</ele>
        <time>2012-04-27T09:28:58Z</time>
      </trkpt>
      <trkpt lat="43.22886" lon="5.63877">
        <ele>265.94189453125</ele>
        <time>2012-04-27T09:29:14Z</time>
      </trkpt>
      <trkpt lat="43.22894" lon="5.63881">
        <ele>265.46130371094</ele>
        <time>2012-04-27T09:29:20Z</time>
      </trkpt>
      <trkpt lat="43.229" lon="5.6391">
        <ele>268.82580566406</ele>
        <time>2012-04-27T09:29:35Z</time>
      </trkpt>
      <trkpt lat="43.22914" lon="5.63937">
        <ele>270.74841308594</ele>
        <time>2012-04-27T09:29:51Z</time>
      </trkpt>
      <trkpt lat="43.22919" lon="5.63947">
        <ele>272.1904296875</ele>
        <time>2012-04-27T09:29:57Z</time>
      </trkpt>
      <trkpt lat="43.22942" lon="5.63976">
        <ele>275.07446289062</ele>
        <time>2012-04-27T09:30:18Z</time>
      </trkpt>
      <trkpt lat="43.22961" lon="5.64003">
        <ele>278.43896484375</ele>
        <time>2012-04-27T09:30:37Z</time>
      </trkpt>
      <trkpt lat="43.22981" lon="5.64036">
        <ele>281.32299804688</ele>
        <time>2012-04-27T09:30:57Z</time>
      </trkpt>
      <trkpt lat="43.22988" lon="5.64048">
        <ele>283.24560546875</ele>
        <time>2012-04-27T09:31:05Z</time>
      </trkpt>
      <trkpt lat="43.2301" lon="5.64097">
        <ele>286.12951660156</ele>
        <time>2012-04-27T09:31:31Z</time>
      </trkpt>
      <trkpt lat="43.23023" lon="5.64109">
        <ele>288.05224609375</ele>
        <time>2012-04-27T09:31:42Z</time>
      </trkpt>
      <trkpt lat="43.23026" lon="5.64102">
        <ele>288.05224609375</ele>
        <time>2012-04-27T09:31:46Z</time>
      </trkpt>
      <trkpt lat="43.23027" lon="5.64068">
        <ele>290.45556640625</ele>
        <time>2012-04-27T09:32:02Z</time>
      </trkpt>
      <trkpt lat="43.23033" lon="5.64056">
        <ele>292.85876464844</ele>
        <time>2012-04-27T09:32:09Z</time>
      </trkpt>
      <trkpt lat="43.23039" lon="5.64053">
        <ele>293.33935546875</ele>
        <time>2012-04-27T09:32:13Z</time>
      </trkpt>
      <trkpt lat="43.23042" lon="5.64055">
        <ele>293.82006835938</ele>
        <time>2012-04-27T09:32:15Z</time>
      </trkpt>
      <trkpt lat="43.23062" lon="5.64086">
        <ele>296.22351074219</ele>
        <time>2012-04-27T09:32:36Z</time>
      </trkpt>
      <trkpt lat="43.23076" lon="5.64119">
        <ele>298.14611816406</ele>
        <time>2012-04-27T09:32:54Z</time>
      </trkpt>
      <trkpt lat="43.23092" lon="5.64152">
        <ele>300.54931640625</ele>
        <time>2012-04-27T09:33:12Z</time>
      </trkpt>
      <trkpt lat="43.23104" lon="5.64181">
        <ele>303.43322753906</ele>
        <time>2012-04-27T09:33:28Z</time>
      </trkpt>
      <trkpt lat="43.23122" lon="5.64212">
        <ele>306.7978515625</ele>
        <time>2012-04-27T09:33:47Z</time>
      </trkpt>
      <trkpt lat="43.23141" lon="5.64248">
        <ele>309.68188476562</ele>
        <time>2012-04-27T09:34:08Z</time>
      </trkpt>
      <trkpt lat="43.23151" lon="5.64285">
        <ele>312.56579589844</ele>
        <time>2012-04-27T09:34:27Z</time>
      </trkpt>
      <trkpt lat="43.23158" lon="5.64321">
        <ele>314.48840332031</ele>
        <time>2012-04-27T09:34:44Z</time>
      </trkpt>
      <trkpt lat="43.23173" lon="5.64358">
        <ele>316.89172363281</ele>
        <time>2012-04-27T09:35:01Z</time>
      </trkpt>
      <trkpt lat="43.23193" lon="5.64397">
        <ele>318.81433105469</ele>
        <time>2012-04-27T09:35:20Z</time>
      </trkpt>
      <trkpt lat="43.23212" lon="5.64436">
        <ele>319.77563476562</ele>
        <time>2012-04-27T09:35:37Z</time>
      </trkpt>
      <trkpt lat="43.23219" lon="5.6445">
        <ele>320.73706054688</ele>
        <time>2012-04-27T09:35:44Z</time>
      </trkpt>
      <trkpt lat="43.23239" lon="5.64475">
        <ele>323.62097167969</ele>
        <time>2012-04-27T09:36:00Z</time>
      </trkpt>
      <trkpt lat="43.23243" lon="5.64505">
        <ele>326.5048828125</ele>
        <time>2012-04-27T09:36:14Z</time>
      </trkpt>
      <trkpt lat="43.23242" lon="5.64522">
        <ele>327.94677734375</ele>
        <time>2012-04-27T09:36:22Z</time>
      </trkpt>
      <trkpt lat="43.23242" lon="5.64549">
        <ele>330.83093261719</ele>
        <time>2012-04-27T09:36:34Z</time>
      </trkpt>
      <trkpt lat="43.23261" lon="5.64559">
        <ele>334.19543457031</ele>
        <time>2012-04-27T09:36:48Z</time>
      </trkpt>
      <trkpt lat="43.23278" lon="5.6458">
        <ele>337.07946777344</ele>
        <time>2012-04-27T09:37:03Z</time>
      </trkpt>
      <trkpt lat="43.23287" lon="5.64609">
        <ele>340.44409179688</ele>
        <time>2012-04-27T09:37:18Z</time>
      </trkpt>
      <trkpt lat="43.23301" lon="5.64643">
        <ele>342.36669921875</ele>
        <time>2012-04-27T09:37:38Z</time>
      </trkpt>
      <trkpt lat="43.23318" lon="5.64679">
        <ele>344.28942871094</ele>
        <time>2012-04-27T09:37:59Z</time>
      </trkpt>
      <trkpt lat="43.23333" lon="5.64714">
        <ele>346.69262695312</ele>
        <time>2012-04-27T09:38:23Z</time>
      </trkpt>
      <trkpt lat="43.23343" lon="5.64734">
        <ele>349.57653808594</ele>
        <time>2012-04-27T09:40:17Z</time>
      </trkpt>
      <trkpt lat="43.23361" lon="5.64763">
        <ele>352.94116210938</ele>
        <time>2012-04-27T09:40:35Z</time>
      </trkpt>
      <trkpt lat="43.23375" lon="5.64798">
        <ele>355.8251953125</ele>
        <time>2012-04-27T09:40:54Z</time>
      </trkpt>
      <trkpt lat="43.23387" lon="5.6484">
        <ele>359.18969726562</ele>
        <time>2012-04-27T09:41:15Z</time>
      </trkpt>
      <trkpt lat="43.23397" lon="5.64862">
        <ele>361.59313964844</ele>
        <time>2012-04-27T09:41:28Z</time>
      </trkpt>
      <trkpt lat="43.23423" lon="5.64888">
        <ele>364.47692871094</ele>
        <time>2012-04-27T09:41:50Z</time>
      </trkpt>
      <trkpt lat="43.23429" lon="5.64893">
        <ele>366.39953613281</ele>
        <time>2012-04-27T09:41:54Z</time>
      </trkpt>
      <trkpt lat="43.23454" lon="5.64914">
        <ele>368.80297851562</ele>
        <time>2012-04-27T09:42:12Z</time>
      </trkpt>
      <trkpt lat="43.23455" lon="5.64921">
        <ele>370.24487304688</ele>
        <time>2012-04-27T09:42:15Z</time>
      </trkpt>
      <trkpt lat="43.23446" lon="5.64951">
        <ele>371.20629882812</ele>
        <time>2012-04-27T09:42:31Z</time>
      </trkpt>
      <trkpt lat="43.23451" lon="5.64985">
        <ele>374.09008789062</ele>
        <time>2012-04-27T09:42:48Z</time>
      </trkpt>
      <trkpt lat="43.2346" lon="5.65008">
        <ele>376.01281738281</ele>
        <time>2012-04-27T09:43:00Z</time>
      </trkpt>
      <trkpt lat="43.23472" lon="5.6503">
        <ele>378.41613769531</ele>
        <time>2012-04-27T09:43:13Z</time>
      </trkpt>
      <trkpt lat="43.23488" lon="5.65057">
        <ele>381.78063964844</ele>
        <time>2012-04-27T09:43:29Z</time>
      </trkpt>
      <trkpt lat="43.23498" lon="5.65073">
        <ele>383.22265625</ele>
        <time>2012-04-27T09:43:39Z</time>
      </trkpt>
      <trkpt lat="43.23517" lon="5.65101">
        <ele>386.10668945312</ele>
        <time>2012-04-27T09:43:58Z</time>
      </trkpt>
      <trkpt lat="43.23539" lon="5.65135">
        <ele>389.47119140625</ele>
        <time>2012-04-27T09:44:19Z</time>
      </trkpt>
      <trkpt lat="43.23541" lon="5.65138">
        <ele>389.95190429688</ele>
        <time>2012-04-27T09:44:21Z</time>
      </trkpt>
      <trkpt lat="43.23565" lon="5.6514">
        <ele>391.87451171875</ele>
        <time>2012-04-27T09:44:37Z</time>
      </trkpt>
      <trkpt lat="43.23583" lon="5.65134">
        <ele>394.27795410156</ele>
        <time>2012-04-27T09:44:51Z</time>
      </trkpt>
      <trkpt lat="43.23597" lon="5.65129">
        <ele>396.20056152344</ele>
        <time>2012-04-27T09:45:00Z</time>
      </trkpt>
      <trkpt lat="43.23612" lon="5.65157">
        <ele>399.08435058594</ele>
        <time>2012-04-27T09:45:18Z</time>
      </trkpt>
      <trkpt lat="43.23616" lon="5.65183">
        <ele>401.48779296875</ele>
        <time>2012-04-27T09:45:32Z</time>
      </trkpt>
      <trkpt lat="43.2362" lon="5.65221">
        <ele>404.37170410156</ele>
        <time>2012-04-27T09:45:50Z</time>
      </trkpt>
      <trkpt lat="43.23626" lon="5.65266">
        <ele>407.736328125</ele>
        <time>2012-04-27T09:46:12Z</time>
      </trkpt>
      <trkpt lat="43.23626" lon="5.6531">
        <ele>409.17834472656</ele>
        <time>2012-04-27T09:46:31Z</time>
      </trkpt>
      <trkpt lat="43.23631" lon="5.65356">
        <ele>411.58166503906</ele>
        <time>2012-04-27T09:46:51Z</time>
      </trkpt>
      <trkpt lat="43.23648" lon="5.65388">
        <ele>413.50427246094</ele>
        <time>2012-04-27T09:47:07Z</time>
      </trkpt>
      <trkpt lat="43.2367" lon="5.65396">
        <ele>415.42687988281</ele>
        <time>2012-04-27T09:47:20Z</time>
      </trkpt>
      <trkpt lat="43.23683" lon="5.65405">
        <ele>415.42687988281</ele>
        <time>2012-04-27T09:47:28Z</time>
      </trkpt>
      <trkpt lat="43.23688" lon="5.65407">
        <ele>415.90747070312</ele>
        <time>2012-04-27T09:47:31Z</time>
      </trkpt>
      <trkpt lat="43.23694" lon="5.65433">
        <ele>413.50427246094</ele>
        <time>2012-04-27T09:47:42Z</time>
      </trkpt>
      <trkpt lat="43.23691" lon="5.65444">
        <ele>413.02355957031</ele>
        <time>2012-04-27T09:47:44Z</time>
      </trkpt>
      <trkpt lat="43.2369" lon="5.65458">
        <ele>411.10095214844</ele>
        <time>2012-04-27T09:47:46Z</time>
      </trkpt>
      <trkpt lat="43.23689" lon="5.65473">
        <ele>410.1396484375</ele>
        <time>2012-04-27T09:47:48Z</time>
      </trkpt>
      <trkpt lat="43.2369" lon="5.6551">
        <ele>407.736328125</ele>
        <time>2012-04-27T09:47:52Z</time>
      </trkpt>
      <trkpt lat="43.23686" lon="5.65563">
        <ele>404.37170410156</ele>
        <time>2012-04-27T09:47:57Z</time>
      </trkpt>
      <trkpt lat="43.23672" lon="5.65606">
        <ele>401.00708007812</ele>
        <time>2012-04-27T09:48:01Z</time>
      </trkpt>
      <trkpt lat="43.23669" lon="5.65616">
        <ele>400.52648925781</ele>
        <time>2012-04-27T09:48:02Z</time>
      </trkpt>
      <trkpt lat="43.23649" lon="5.65678">
        <ele>396.68115234375</ele>
        <time>2012-04-27T09:48:08Z</time>
      </trkpt>
      <trkpt lat="43.23645" lon="5.65688">
        <ele>397.16174316406</ele>
        <time>2012-04-27T09:48:09Z</time>
      </trkpt>
      <trkpt lat="43.23623" lon="5.65746">
        <ele>394.75854492188</ele>
        <time>2012-04-27T09:48:15Z</time>
      </trkpt>
      <trkpt lat="43.2361" lon="5.65813">
        <ele>390.91320800781</ele>
        <time>2012-04-27T09:48:21Z</time>
      </trkpt>
      <trkpt lat="43.23607" lon="5.65836">
        <ele>389.95190429688</ele>
        <time>2012-04-27T09:48:23Z</time>
      </trkpt>
      <trkpt lat="43.23602" lon="5.65921">
        <ele>385.6259765625</ele>
        <time>2012-04-27T09:48:31Z</time>
      </trkpt>
      <trkpt lat="43.23602" lon="5.65931">
        <ele>386.10668945312</ele>
        <time>2012-04-27T09:48:32Z</time>
      </trkpt>
      <trkpt lat="43.23588" lon="5.66077">
        <ele>386.10668945312</ele>
        <time>2012-04-27T09:48:48Z</time>
      </trkpt>
      <trkpt lat="43.23581" lon="5.66122">
        <ele>384.18408203125</ele>
        <time>2012-04-27T09:48:53Z</time>
      </trkpt>
      <trkpt lat="43.2358" lon="5.66159">
        <ele>382.74206542969</ele>
        <time>2012-04-27T09:48:57Z</time>
      </trkpt>
      <trkpt lat="43.23583" lon="5.66203">
        <ele>383.22265625</ele>
        <time>2012-04-27T09:49:02Z</time>
      </trkpt>
      <trkpt lat="43.23584" lon="5.66219">
        <ele>385.6259765625</ele>
        <time>2012-04-27T09:49:04Z</time>
      </trkpt>
      <trkpt lat="43.2358" lon="5.66241">
        <ele>384.18408203125</ele>
        <time>2012-04-27T09:49:07Z</time>
      </trkpt>
      <trkpt lat="43.23566" lon="5.6632">
        <ele>380.81945800781</ele>
        <time>2012-04-27T09:49:18Z</time>
      </trkpt>
      <trkpt lat="43.23565" lon="5.66351">
        <ele>379.85803222656</ele>
        <time>2012-04-27T09:49:22Z</time>
      </trkpt>
      <trkpt lat="43.23558" lon="5.66375">
        <ele>380.81945800781</ele>
        <time>2012-04-27T09:49:26Z</time>
      </trkpt>
      <trkpt lat="43.23554" lon="5.66405">
        <ele>379.37744140625</ele>
        <time>2012-04-27T09:49:30Z</time>
      </trkpt>
      <trkpt lat="43.2355" lon="5.66428">
        <ele>377.93542480469</ele>
        <time>2012-04-27T09:49:33Z</time>
      </trkpt>
      <trkpt lat="43.23551" lon="5.66451">
        <ele>378.41613769531</ele>
        <time>2012-04-27T09:49:36Z</time>
      </trkpt>
      <trkpt lat="43.23552" lon="5.66466">
        <ele>378.89685058594</ele>
        <time>2012-04-27T09:49:38Z</time>
      </trkpt>
      <trkpt lat="43.23554" lon="5.66508">
        <ele>379.37744140625</ele>
        <time>2012-04-27T09:49:44Z</time>
      </trkpt>
      <trkpt lat="43.23542" lon="5.66603">
        <ele>380.81945800781</ele>
        <time>2012-04-27T09:50:02Z</time>
      </trkpt>
      <trkpt lat="43.23535" lon="5.6667">
        <ele>382.26135253906</ele>
        <time>2012-04-27T09:50:16Z</time>
      </trkpt>
      <trkpt lat="43.23534" lon="5.66731">
        <ele>383.70324707031</ele>
        <time>2012-04-27T09:50:33Z</time>
      </trkpt>
      <trkpt lat="43.23521" lon="5.66771">
        <ele>385.6259765625</ele>
        <time>2012-04-27T09:50:45Z</time>
      </trkpt>
      <trkpt lat="43.23506" lon="5.66829">
        <ele>386.58740234375</ele>
        <time>2012-04-27T09:51:01Z</time>
      </trkpt>
      <trkpt lat="43.23495" lon="5.66889">
        <ele>386.10668945312</ele>
        <time>2012-04-27T09:51:15Z</time>
      </trkpt>
      <trkpt lat="43.23496" lon="5.66904">
        <ele>385.6259765625</ele>
        <time>2012-04-27T09:51:18Z</time>
      </trkpt>
      <trkpt lat="43.23492" lon="5.66987">
        <ele>384.18408203125</ele>
        <time>2012-04-27T09:51:33Z</time>
      </trkpt>
      <trkpt lat="43.23491" lon="5.67004">
        <ele>383.70324707031</ele>
        <time>2012-04-27T09:51:36Z</time>
      </trkpt>
      <trkpt lat="43.23491" lon="5.67023">
        <ele>383.70324707031</ele>
        <time>2012-04-27T09:51:39Z</time>
      </trkpt>
      <trkpt lat="43.23489" lon="5.67063">
        <ele>383.70324707031</ele>
        <time>2012-04-27T09:51:46Z</time>
      </trkpt>
      <trkpt lat="43.2348" lon="5.67085">
        <ele>381.78063964844</ele>
        <time>2012-04-27T09:51:50Z</time>
      </trkpt>
      <trkpt lat="43.23466" lon="5.67146">
        <ele>380.81945800781</ele>
        <time>2012-04-27T09:51:59Z</time>
      </trkpt>
      <trkpt lat="43.23463" lon="5.6716">
        <ele>379.85803222656</ele>
        <time>2012-04-27T09:52:01Z</time>
      </trkpt>
      <trkpt lat="43.23454" lon="5.67173">
        <ele>378.89685058594</ele>
        <time>2012-04-27T09:52:04Z</time>
      </trkpt>
      <trkpt lat="43.23455" lon="5.67199">
        <ele>379.85803222656</ele>
        <time>2012-04-27T09:52:08Z</time>
      </trkpt>
      <trkpt lat="43.23451" lon="5.67212">
        <ele>381.30004882812</ele>
        <time>2012-04-27T09:52:11Z</time>
      </trkpt>
      <trkpt lat="43.23447" lon="5.67213">
        <ele>381.30004882812</ele>
        <time>2012-04-27T09:52:12Z</time>
      </trkpt>
      <trkpt lat="43.23403" lon="5.67236">
        <ele>382.26135253906</ele>
        <time>2012-04-27T09:52:26Z</time>
      </trkpt>
      <trkpt lat="43.23365" lon="5.6726">
        <ele>382.74206542969</ele>
        <time>2012-04-27T09:52:43Z</time>
      </trkpt>
      <trkpt lat="43.23336" lon="5.67284">
        <ele>384.66479492188</ele>
        <time>2012-04-27T09:52:59Z</time>
      </trkpt>
      <trkpt lat="43.23306" lon="5.67304">
        <ele>386.10668945312</ele>
        <time>2012-04-27T09:53:13Z</time>
      </trkpt>
      <trkpt lat="43.23261" lon="5.67331">
        <ele>387.06799316406</ele>
        <time>2012-04-27T09:53:32Z</time>
      </trkpt>
      <trkpt lat="43.23231" lon="5.67353">
        <ele>389.47119140625</ele>
        <time>2012-04-27T09:53:48Z</time>
      </trkpt>
      <trkpt lat="43.23207" lon="5.6737">
        <ele>392.35534667969</ele>
        <time>2012-04-27T09:54:02Z</time>
      </trkpt>
      <trkpt lat="43.23186" lon="5.67373">
        <ele>393.79724121094</ele>
        <time>2012-04-27T09:54:15Z</time>
      </trkpt>
      <trkpt lat="43.23165" lon="5.67373">
        <ele>396.68115234375</ele>
        <time>2012-04-27T09:54:28Z</time>
      </trkpt>
      <trkpt lat="43.23143" lon="5.67375">
        <ele>400.0458984375</ele>
        <time>2012-04-27T09:54:41Z</time>
      </trkpt>
      <trkpt lat="43.23125" lon="5.67358">
        <ele>402.44909667969</ele>
        <time>2012-04-27T09:54:56Z</time>
      </trkpt>
      <trkpt lat="43.23109" lon="5.67309">
        <ele>405.3330078125</ele>
        <time>2012-04-27T09:55:17Z</time>
      </trkpt>
      <trkpt lat="43.23088" lon="5.67293">
        <ele>408.69763183594</ele>
        <time>2012-04-27T09:55:34Z</time>
      </trkpt>
      <trkpt lat="43.23056" lon="5.67284">
        <ele>412.06225585938</ele>
        <time>2012-04-27T09:55:55Z</time>
      </trkpt>
      <trkpt lat="43.23035" lon="5.67257">
        <ele>414.46545410156</ele>
        <time>2012-04-27T09:56:14Z</time>
      </trkpt>
      <trkpt lat="43.23031" lon="5.672">
        <ele>415.90747070312</ele>
        <time>2012-04-27T09:56:35Z</time>
      </trkpt>
      <trkpt lat="43.23001" lon="5.67164">
        <ele>417.349609375</ele>
        <time>2012-04-27T09:56:51Z</time>
      </trkpt>
      <trkpt lat="43.22958" lon="5.67142">
        <ele>417.83020019531</ele>
        <time>2012-04-27T09:57:09Z</time>
      </trkpt>
      <trkpt lat="43.22926" lon="5.67108">
        <ele>419.27221679688</ele>
        <time>2012-04-27T09:57:24Z</time>
      </trkpt>
      <trkpt lat="43.22877" lon="5.67055">
        <ele>419.75280761719</ele>
        <time>2012-04-27T09:57:40Z</time>
      </trkpt>
      <trkpt lat="43.22868" lon="5.67041">
        <ele>420.71411132812</ele>
        <time>2012-04-27T09:57:44Z</time>
      </trkpt>
      <trkpt lat="43.22872" lon="5.67027">
        <ele>420.71411132812</ele>
        <time>2012-04-27T09:57:48Z</time>
      </trkpt>
      <trkpt lat="43.22898" lon="5.66997">
        <ele>422.15600585938</ele>
        <time>2012-04-27T09:58:05Z</time>
      </trkpt>
      <trkpt lat="43.2293" lon="5.66965">
        <ele>424.07873535156</ele>
        <time>2012-04-27T09:58:24Z</time>
      </trkpt>
      <trkpt lat="43.22942" lon="5.66943">
        <ele>425.52075195312</ele>
        <time>2012-04-27T09:58:33Z</time>
      </trkpt>
      <trkpt lat="43.2294" lon="5.66892">
        <ele>426.48205566406</ele>
        <time>2012-04-27T09:58:50Z</time>
      </trkpt>
      <trkpt lat="43.2295" lon="5.6684">
        <ele>428.40466308594</ele>
        <time>2012-04-27T09:59:08Z</time>
      </trkpt>
      <trkpt lat="43.22958" lon="5.66785">
        <ele>431.28857421875</ele>
        <time>2012-04-27T09:59:28Z</time>
      </trkpt>
      <trkpt lat="43.22967" lon="5.66755">
        <ele>434.17260742188</ele>
        <time>2012-04-27T09:59:42Z</time>
      </trkpt>
      <trkpt lat="43.22974" lon="5.66719">
        <ele>437.05651855469</ele>
        <time>2012-04-27T09:59:58Z</time>
      </trkpt>
      <trkpt lat="43.22981" lon="5.66678">
        <ele>440.42126464844</ele>
        <time>2012-04-27T10:00:18Z</time>
      </trkpt>
      <trkpt lat="43.22985" lon="5.66657">
        <ele>442.82446289062</ele>
        <time>2012-04-27T10:00:28Z</time>
      </trkpt>
      <trkpt lat="43.2299" lon="5.6661">
        <ele>445.70837402344</ele>
        <time>2012-04-27T10:00:50Z</time>
      </trkpt>
      <trkpt lat="43.22989" lon="5.66592">
        <ele>447.15026855469</ele>
        <time>2012-04-27T10:00:59Z</time>
      </trkpt>
      <trkpt lat="43.23001" lon="5.6657">
        <ele>449.5537109375</ele>
        <time>2012-04-27T10:01:13Z</time>
      </trkpt>
      <trkpt lat="43.23012" lon="5.66552">
        <ele>450.51501464844</ele>
        <time>2012-04-27T10:01:25Z</time>
      </trkpt>
      <trkpt lat="43.23013" lon="5.66541">
        <ele>450.99560546875</ele>
        <time>2012-04-27T10:01:30Z</time>
      </trkpt>
      <trkpt lat="43.22994" lon="5.6651">
        <ele>453.39892578125</ele>
        <time>2012-04-27T10:01:49Z</time>
      </trkpt>
      <trkpt lat="43.2297" lon="5.66479">
        <ele>456.28295898438</ele>
        <time>2012-04-27T10:02:09Z</time>
      </trkpt>
      <trkpt lat="43.22944" lon="5.66447">
        <ele>455.32153320312</ele>
        <time>2012-04-27T10:02:27Z</time>
      </trkpt>
      <trkpt lat="43.22917" lon="5.66401">
        <ele>456.28295898438</ele>
        <time>2012-04-27T10:02:44Z</time>
      </trkpt>
      <trkpt lat="43.22912" lon="5.66387">
        <ele>455.80224609375</ele>
        <time>2012-04-27T10:02:50Z</time>
      </trkpt>
      <trkpt lat="43.22896" lon="5.66393">
        <ele>455.32153320312</ele>
        <time>2012-04-27T10:03:04Z</time>
      </trkpt>
      <trkpt lat="43.22896" lon="5.66394">
        <ele>451.95703125</ele>
        <time>2012-04-27T10:06:40Z</time>
      </trkpt>
      <trkpt lat="43.22896" lon="5.66394">
        <ele>457.72497558594</ele>
        <time>2012-04-27T10:06:41Z</time>
      </trkpt>
      <trkpt lat="43.22896" lon="5.66394">
        <ele>457.24426269531</ele>
        <time>2012-04-27T10:10:15Z</time>
      </trkpt>
      <trkpt lat="43.22893" lon="5.66391">
        <ele>457.72497558594</ele>
        <time>2012-04-27T10:10:30Z</time>
      </trkpt>
      <trkpt lat="43.22881" lon="5.66387">
        <ele>453.39892578125</ele>
        <time>2012-04-27T10:10:34Z</time>
      </trkpt>
      <trkpt lat="43.22866" lon="5.66385">
        <ele>451.95703125</ele>
        <time>2012-04-27T10:10:37Z</time>
      </trkpt>
      <trkpt lat="43.22843" lon="5.66382">
        <ele>450.03442382812</ele>
        <time>2012-04-27T10:10:42Z</time>
      </trkpt>
      <trkpt lat="43.22814" lon="5.66372">
        <ele>444.7470703125</ele>
        <time>2012-04-27T10:10:46Z</time>
      </trkpt>
      <trkpt lat="43.22781" lon="5.66358">
        <ele>441.38244628906</ele>
        <time>2012-04-27T10:10:50Z</time>
      </trkpt>
      <trkpt lat="43.22755" lon="5.66347">
        <ele>437.537109375</ele>
        <time>2012-04-27T10:10:53Z</time>
      </trkpt>
      <trkpt lat="43.22721" lon="5.66327">
        <ele>436.09521484375</ele>
        <time>2012-04-27T10:10:57Z</time>
      </trkpt>
      <trkpt lat="43.22696" lon="5.66314">
        <ele>432.73071289062</ele>
        <time>2012-04-27T10:11:00Z</time>
      </trkpt>
      <trkpt lat="43.22674" lon="5.66301">
        <ele>430.32727050781</ele>
        <time>2012-04-27T10:11:03Z</time>
      </trkpt>
      <trkpt lat="43.22655" lon="5.66304">
        <ele>428.40466308594</ele>
        <time>2012-04-27T10:11:07Z</time>
      </trkpt>
      <trkpt lat="43.22651" lon="5.66308">
        <ele>428.88537597656</ele>
        <time>2012-04-27T10:11:08Z</time>
      </trkpt>
      <trkpt lat="43.22643" lon="5.66321">
        <ele>427.92395019531</ele>
        <time>2012-04-27T10:11:11Z</time>
      </trkpt>
      <trkpt lat="43.22637" lon="5.66341">
        <ele>427.92395019531</ele>
        <time>2012-04-27T10:11:15Z</time>
      </trkpt>
      <trkpt lat="43.2263" lon="5.66385">
        <ele>428.88537597656</ele>
        <time>2012-04-27T10:11:24Z</time>
      </trkpt>
      <trkpt lat="43.22609" lon="5.66385">
        <ele>426.48205566406</ele>
        <time>2012-04-27T10:11:28Z</time>
      </trkpt>
      <trkpt lat="43.22598" lon="5.66381">
        <ele>425.52075195312</ele>
        <time>2012-04-27T10:11:30Z</time>
      </trkpt>
      <trkpt lat="43.22588" lon="5.66377">
        <ele>425.04016113281</ele>
        <time>2012-04-27T10:11:32Z</time>
      </trkpt>
      <trkpt lat="43.22567" lon="5.6638">
        <ele>424.55944824219</ele>
        <time>2012-04-27T10:11:36Z</time>
      </trkpt>
      <trkpt lat="43.22558" lon="5.66383">
        <ele>424.55944824219</ele>
        <time>2012-04-27T10:11:38Z</time>
      </trkpt>
      <trkpt lat="43.22543" lon="5.66385">
        <ele>424.07873535156</ele>
        <time>2012-04-27T10:11:41Z</time>
      </trkpt>
      <trkpt lat="43.22525" lon="5.66393">
        <ele>422.63671875</ele>
        <time>2012-04-27T10:11:45Z</time>
      </trkpt>
      <trkpt lat="43.22511" lon="5.66402">
        <ele>420.2333984375</ele>
        <time>2012-04-27T10:11:49Z</time>
      </trkpt>
      <trkpt lat="43.22488" lon="5.66412">
        <ele>417.83020019531</ele>
        <time>2012-04-27T10:11:54Z</time>
      </trkpt>
      <trkpt lat="43.22451" lon="5.66412">
        <ele>417.83020019531</ele>
        <time>2012-04-27T10:12:02Z</time>
      </trkpt>
      <trkpt lat="43.22438" lon="5.66409">
        <ele>416.38818359375</ele>
        <time>2012-04-27T10:12:05Z</time>
      </trkpt>
      <trkpt lat="43.22416" lon="5.66408">
        <ele>413.98486328125</ele>
        <time>2012-04-27T10:12:17Z</time>
      </trkpt>
      <trkpt lat="43.22417" lon="5.66407">
        <ele>414.46545410156</ele>
        <time>2012-04-27T10:12:52Z</time>
      </trkpt>
      <trkpt lat="43.22418" lon="5.66407">
        <ele>414.94616699219</ele>
        <time>2012-04-27T10:13:08Z</time>
      </trkpt>
      <trkpt lat="43.22428" lon="5.66407">
        <ele>415.90747070312</ele>
        <time>2012-04-27T10:13:16Z</time>
      </trkpt>
      <trkpt lat="43.2245" lon="5.66411">
        <ele>418.31079101562</ele>
        <time>2012-04-27T10:13:31Z</time>
      </trkpt>
      <trkpt lat="43.22476" lon="5.66412">
        <ele>420.2333984375</ele>
        <time>2012-04-27T10:13:46Z</time>
      </trkpt>
      <trkpt lat="43.22497" lon="5.66409">
        <ele>421.19482421875</ele>
        <time>2012-04-27T10:13:57Z</time>
      </trkpt>
      <trkpt lat="43.2252" lon="5.66395">
        <ele>424.07873535156</ele>
        <time>2012-04-27T10:14:12Z</time>
      </trkpt>
      <trkpt lat="43.22546" lon="5.66383">
        <ele>426.48205566406</ele>
        <time>2012-04-27T10:14:28Z</time>
      </trkpt>
      <trkpt lat="43.22554" lon="5.66383">
        <ele>426.48205566406</ele>
        <time>2012-04-27T10:14:33Z</time>
      </trkpt>
      <trkpt lat="43.2256" lon="5.66394">
        <ele>425.52075195312</ele>
        <time>2012-04-27T10:14:49Z</time>
      </trkpt>
      <trkpt lat="43.22561" lon="5.66411">
        <ele>422.15600585938</ele>
        <time>2012-04-27T10:14:54Z</time>
      </trkpt>
      <trkpt lat="43.2256" lon="5.66429">
        <ele>419.27221679688</ele>
        <time>2012-04-27T10:14:58Z</time>
      </trkpt>
      <trkpt lat="43.22559" lon="5.6644">
        <ele>417.349609375</ele>
        <time>2012-04-27T10:15:00Z</time>
      </trkpt>
      <trkpt lat="43.22569" lon="5.66457">
        <ele>414.94616699219</ele>
        <time>2012-04-27T10:15:04Z</time>
      </trkpt>
      <trkpt lat="43.22578" lon="5.6647">
        <ele>417.349609375</ele>
        <time>2012-04-27T10:15:08Z</time>
      </trkpt>
      <trkpt lat="43.22583" lon="5.66486">
        <ele>418.31079101562</ele>
        <time>2012-04-27T10:15:13Z</time>
      </trkpt>
      <trkpt lat="43.2258" lon="5.66494">
        <ele>415.42687988281</ele>
        <time>2012-04-27T10:15:17Z</time>
      </trkpt>
      <trkpt lat="43.22579" lon="5.66503">
        <ele>414.46545410156</ele>
        <time>2012-04-27T10:15:19Z</time>
      </trkpt>
      <trkpt lat="43.22568" lon="5.66527">
        <ele>410.62023925781</ele>
        <time>2012-04-27T10:15:24Z</time>
      </trkpt>
      <trkpt lat="43.22565" lon="5.66533">
        <ele>410.62023925781</ele>
        <time>2012-04-27T10:15:25Z</time>
      </trkpt>
      <trkpt lat="43.22554" lon="5.66558">
        <ele>407.736328125</ele>
        <time>2012-04-27T10:15:29Z</time>
      </trkpt>
      <trkpt lat="43.22546" lon="5.66569">
        <ele>406.77490234375</ele>
        <time>2012-04-27T10:15:31Z</time>
      </trkpt>
      <trkpt lat="43.22538" lon="5.66579">
        <ele>406.77490234375</ele>
        <time>2012-04-27T10:15:33Z</time>
      </trkpt>
      <trkpt lat="43.22518" lon="5.66609">
        <ele>401.96850585938</ele>
        <time>2012-04-27T10:15:38Z</time>
      </trkpt>
      <trkpt lat="43.22508" lon="5.66627">
        <ele>399.08435058594</ele>
        <time>2012-04-27T10:15:41Z</time>
      </trkpt>
      <trkpt lat="43.22488" lon="5.66644">
        <ele>394.75854492188</ele>
        <time>2012-04-27T10:15:45Z</time>
      </trkpt>
      <trkpt lat="43.22471" lon="5.66654">
        <ele>392.8359375</ele>
        <time>2012-04-27T10:15:48Z</time>
      </trkpt>
      <trkpt lat="43.22465" lon="5.66659">
        <ele>392.35534667969</ele>
        <time>2012-04-27T10:15:49Z</time>
      </trkpt>
      <trkpt lat="43.22439" lon="5.6667">
        <ele>389.47119140625</ele>
        <time>2012-04-27T10:15:53Z</time>
      </trkpt>
      <trkpt lat="43.22418" lon="5.66685">
        <ele>385.14538574219</ele>
        <time>2012-04-27T10:15:57Z</time>
      </trkpt>
      <trkpt lat="43.22406" lon="5.66693">
        <ele>383.70324707031</ele>
        <time>2012-04-27T10:15:59Z</time>
      </trkpt>
      <trkpt lat="43.22392" lon="5.66717">
        <ele>382.26135253906</ele>
        <time>2012-04-27T10:16:04Z</time>
      </trkpt>
      <trkpt lat="43.22386" lon="5.66739">
        <ele>379.85803222656</ele>
        <time>2012-04-27T10:16:07Z</time>
      </trkpt>
      <trkpt lat="43.22368" lon="5.66768">
        <ele>377.93542480469</ele>
        <time>2012-04-27T10:16:12Z</time>
      </trkpt>
      <trkpt lat="43.22353" lon="5.66797">
        <ele>374.09008789062</ele>
        <time>2012-04-27T10:16:16Z</time>
      </trkpt>
      <trkpt lat="43.22322" lon="5.66833">
        <ele>369.28369140625</ele>
        <time>2012-04-27T10:16:23Z</time>
      </trkpt>
      <trkpt lat="43.22313" lon="5.66843">
        <ele>368.322265625</ele>
        <time>2012-04-27T10:16:25Z</time>
      </trkpt>
      <trkpt lat="43.22308" lon="5.66849">
        <ele>368.322265625</ele>
        <time>2012-04-27T10:16:26Z</time>
      </trkpt>
      <trkpt lat="43.22296" lon="5.66885">
        <ele>368.322265625</ele>
        <time>2012-04-27T10:16:31Z</time>
      </trkpt>
      <trkpt lat="43.22278" lon="5.66917">
        <ele>364.95764160156</ele>
        <time>2012-04-27T10:16:37Z</time>
      </trkpt>
      <trkpt lat="43.22252" lon="5.66909">
        <ele>359.18969726562</ele>
        <time>2012-04-27T10:16:41Z</time>
      </trkpt>
      <trkpt lat="43.22222" lon="5.66901">
        <ele>356.78637695312</ele>
        <time>2012-04-27T10:16:46Z</time>
      </trkpt>
      <trkpt lat="43.22207" lon="5.66902">
        <ele>354.38317871094</ele>
        <time>2012-04-27T10:16:49Z</time>
      </trkpt>
      <trkpt lat="43.22202" lon="5.66902">
        <ele>353.421875</ele>
        <time>2012-04-27T10:16:50Z</time>
      </trkpt>
      <trkpt lat="43.22181" lon="5.66913">
        <ele>350.05725097656</ele>
        <time>2012-04-27T10:16:54Z</time>
      </trkpt>
      <trkpt lat="43.22165" lon="5.66924">
        <ele>349.57653808594</ele>
        <time>2012-04-27T10:16:57Z</time>
      </trkpt>
      <trkpt lat="43.22151" lon="5.66947">
        <ele>349.09582519531</ele>
        <time>2012-04-27T10:17:01Z</time>
      </trkpt>
      <trkpt lat="43.22141" lon="5.66966">
        <ele>348.615234375</ele>
        <time>2012-04-27T10:17:04Z</time>
      </trkpt>
      <trkpt lat="43.22119" lon="5.66969">
        <ele>347.17321777344</ele>
        <time>2012-04-27T10:17:08Z</time>
      </trkpt>
      <trkpt lat="43.2209" lon="5.66954">
        <ele>342.84729003906</ele>
        <time>2012-04-27T10:17:12Z</time>
      </trkpt>
      <trkpt lat="43.22083" lon="5.6695">
        <ele>342.36669921875</ele>
        <time>2012-04-27T10:17:13Z</time>
      </trkpt>
      <trkpt lat="43.22054" lon="5.66948">
        <ele>340.92468261719</ele>
        <time>2012-04-27T10:17:17Z</time>
      </trkpt>
      <trkpt lat="43.22041" lon="5.66946">
        <ele>338.521484375</ele>
        <time>2012-04-27T10:17:19Z</time>
      </trkpt>
      <trkpt lat="43.22015" lon="5.66947">
        <ele>335.15673828125</ele>
        <time>2012-04-27T10:17:23Z</time>
      </trkpt>
      <trkpt lat="43.22008" lon="5.66948">
        <ele>333.71472167969</ele>
        <time>2012-04-27T10:17:24Z</time>
      </trkpt>
      <trkpt lat="43.21989" lon="5.66944">
        <ele>331.79211425781</ele>
        <time>2012-04-27T10:17:27Z</time>
      </trkpt>
      <trkpt lat="43.21967" lon="5.6693">
        <ele>327.94677734375</ele>
        <time>2012-04-27T10:17:32Z</time>
      </trkpt>
      <trkpt lat="43.21949" lon="5.66923">
        <ele>325.54357910156</ele>
        <time>2012-04-27T10:17:35Z</time>
      </trkpt>
      <trkpt lat="43.21879" lon="5.66911">
        <ele>325.54357910156</ele>
        <time>2012-04-27T10:17:48Z</time>
      </trkpt>
      <trkpt lat="43.21825" lon="5.66897">
        <ele>326.5048828125</ele>
        <time>2012-04-27T10:18:04Z</time>
      </trkpt>
      <trkpt lat="43.218" lon="5.66929">
        <ele>326.02416992188</ele>
        <time>2012-04-27T10:18:15Z</time>
      </trkpt>
      <trkpt lat="43.21773" lon="5.66985">
        <ele>325.54357910156</ele>
        <time>2012-04-27T10:18:28Z</time>
      </trkpt>
      <trkpt lat="43.21751" lon="5.67042">
        <ele>327.46618652344</ele>
        <time>2012-04-27T10:18:40Z</time>
      </trkpt>
      <trkpt lat="43.2174" lon="5.67083">
        <ele>329.38891601562</ele>
        <time>2012-04-27T10:18:53Z</time>
      </trkpt>
      <trkpt lat="43.2174" lon="5.67126">
        <ele>328.90832519531</ele>
        <time>2012-04-27T10:19:09Z</time>
      </trkpt>
      <trkpt lat="43.21735" lon="5.67149">
        <ele>327.46618652344</ele>
        <time>2012-04-27T10:19:15Z</time>
      </trkpt>
      <trkpt lat="43.21716" lon="5.6716">
        <ele>323.14038085938</ele>
        <time>2012-04-27T10:19:20Z</time>
      </trkpt>
      <trkpt lat="43.21689" lon="5.67165">
        <ele>321.2177734375</ele>
        <time>2012-04-27T10:19:24Z</time>
      </trkpt>
      <trkpt lat="43.21668" lon="5.67168">
        <ele>318.33361816406</ele>
        <time>2012-04-27T10:19:27Z</time>
      </trkpt>
      <trkpt lat="43.21661" lon="5.67169">
        <ele>319.29504394531</ele>
        <time>2012-04-27T10:19:28Z</time>
      </trkpt>
      <trkpt lat="43.21623" lon="5.67177">
        <ele>316.89172363281</ele>
        <time>2012-04-27T10:19:34Z</time>
      </trkpt>
      <trkpt lat="43.21586" lon="5.67173">
        <ele>317.85302734375</ele>
        <time>2012-04-27T10:19:41Z</time>
      </trkpt>
      <trkpt lat="43.21565" lon="5.67178">
        <ele>313.52722167969</ele>
        <time>2012-04-27T10:19:45Z</time>
      </trkpt>
      <trkpt lat="43.21547" lon="5.67177">
        <ele>313.04650878906</ele>
        <time>2012-04-27T10:19:48Z</time>
      </trkpt>
      <trkpt lat="43.21536" lon="5.67182">
        <ele>311.6044921875</ele>
        <time>2012-04-27T10:19:50Z</time>
      </trkpt>
      <trkpt lat="43.21525" lon="5.67189">
        <ele>310.16247558594</ele>
        <time>2012-04-27T10:19:52Z</time>
      </trkpt>
      <trkpt lat="43.21498" lon="5.67194">
        <ele>308.23986816406</ele>
        <time>2012-04-27T10:19:56Z</time>
      </trkpt>
      <trkpt lat="43.21478" lon="5.67194">
        <ele>307.75927734375</ele>
        <time>2012-04-27T10:19:59Z</time>
      </trkpt>
      <trkpt lat="43.21456" lon="5.67198">
        <ele>304.87524414062</ele>
        <time>2012-04-27T10:20:03Z</time>
      </trkpt>
      <trkpt lat="43.21449" lon="5.67198">
        <ele>303.91394042969</ele>
        <time>2012-04-27T10:20:04Z</time>
      </trkpt>
      <trkpt lat="43.21437" lon="5.67202">
        <ele>302.47192382812</ele>
        <time>2012-04-27T10:20:06Z</time>
      </trkpt>
      <trkpt lat="43.21426" lon="5.67206">
        <ele>300.54931640625</ele>
        <time>2012-04-27T10:20:08Z</time>
      </trkpt>
      <trkpt lat="43.21392" lon="5.6721">
        <ele>298.62670898438</ele>
        <time>2012-04-27T10:20:13Z</time>
      </trkpt>
      <trkpt lat="43.21352" lon="5.67221">
        <ele>294.78137207031</ele>
        <time>2012-04-27T10:20:19Z</time>
      </trkpt>
      <trkpt lat="43.21329" lon="5.67231">
        <ele>291.8974609375</ele>
        <time>2012-04-27T10:20:23Z</time>
      </trkpt>
      <trkpt lat="43.21317" lon="5.67238">
        <ele>290.93615722656</ele>
        <time>2012-04-27T10:20:25Z</time>
      </trkpt>
      <trkpt lat="43.21311" lon="5.6724">
        <ele>290.93615722656</ele>
        <time>2012-04-27T10:20:26Z</time>
      </trkpt>
      <trkpt lat="43.21267" lon="5.6724">
        <ele>287.0908203125</ele>
        <time>2012-04-27T10:20:33Z</time>
      </trkpt>
      <trkpt lat="43.21244" lon="5.6725">
        <ele>283.72619628906</ele>
        <time>2012-04-27T10:20:37Z</time>
      </trkpt>
      <trkpt lat="43.21226" lon="5.67251">
        <ele>283.24560546875</ele>
        <time>2012-04-27T10:20:40Z</time>
      </trkpt>
      <trkpt lat="43.21208" lon="5.67255">
        <ele>282.28430175781</ele>
        <time>2012-04-27T10:20:43Z</time>
      </trkpt>
      <trkpt lat="43.21185" lon="5.67257">
        <ele>283.72619628906</ele>
        <time>2012-04-27T10:20:47Z</time>
      </trkpt>
      <trkpt lat="43.21168" lon="5.67261">
        <ele>281.32299804688</ele>
        <time>2012-04-27T10:20:51Z</time>
      </trkpt>
      <trkpt lat="43.21131" lon="5.67265">
        <ele>280.36169433594</ele>
        <time>2012-04-27T10:20:57Z</time>
      </trkpt>
      <trkpt lat="43.21101" lon="5.67273">
        <ele>276.51635742188</ele>
        <time>2012-04-27T10:21:02Z</time>
      </trkpt>
      <trkpt lat="43.21094" lon="5.67275">
        <ele>275.55505371094</ele>
        <time>2012-04-27T10:21:03Z</time>
      </trkpt>
      <trkpt lat="43.21083" lon="5.67276">
        <ele>274.59375</ele>
        <time>2012-04-27T10:21:05Z</time>
      </trkpt>
      <trkpt lat="43.21062" lon="5.67267">
        <ele>274.11303710938</ele>
        <time>2012-04-27T10:21:09Z</time>
      </trkpt>
      <trkpt lat="43.21043" lon="5.6726">
        <ele>274.11303710938</ele>
        <time>2012-04-27T10:21:12Z</time>
      </trkpt>
      <trkpt lat="43.21025" lon="5.67246">
        <ele>272.1904296875</ele>
        <time>2012-04-27T10:21:15Z</time>
      </trkpt>
      <trkpt lat="43.20994" lon="5.67213">
        <ele>269.787109375</ele>
        <time>2012-04-27T10:21:21Z</time>
      </trkpt>
      <trkpt lat="43.20981" lon="5.67196">
        <ele>265.94189453125</ele>
        <time>2012-04-27T10:21:24Z</time>
      </trkpt>
      <trkpt lat="43.20972" lon="5.67187">
        <ele>264.98059082031</ele>
        <time>2012-04-27T10:21:26Z</time>
      </trkpt>
      <trkpt lat="43.20955" lon="5.6717">
        <ele>260.65454101562</ele>
        <time>2012-04-27T10:21:30Z</time>
      </trkpt>
      <trkpt lat="43.20945" lon="5.67164">
        <ele>259.21264648438</ele>
        <time>2012-04-27T10:21:32Z</time>
      </trkpt>
      <trkpt lat="43.20932" lon="5.67159">
        <ele>255.84802246094</ele>
        <time>2012-04-27T10:21:35Z</time>
      </trkpt>
      <trkpt lat="43.2092" lon="5.67155">
        <ele>252.4833984375</ele>
        <time>2012-04-27T10:21:37Z</time>
      </trkpt>
      <trkpt lat="43.20909" lon="5.6715">
        <ele>252.00280761719</ele>
        <time>2012-04-27T10:21:39Z</time>
      </trkpt>
      <trkpt lat="43.20898" lon="5.67146">
        <ele>249.11877441406</ele>
        <time>2012-04-27T10:21:41Z</time>
      </trkpt>
      <trkpt lat="43.20881" lon="5.67139">
        <ele>246.71545410156</ele>
        <time>2012-04-27T10:21:44Z</time>
      </trkpt>
      <trkpt lat="43.20862" lon="5.67131">
        <ele>245.2734375</ele>
        <time>2012-04-27T10:21:47Z</time>
      </trkpt>
      <trkpt lat="43.2084" lon="5.67139">
        <ele>243.83154296875</ele>
        <time>2012-04-27T10:21:51Z</time>
      </trkpt>
      <trkpt lat="43.20835" lon="5.67141">
        <ele>242.3896484375</ele>
        <time>2012-04-27T10:21:52Z</time>
      </trkpt>
      <trkpt lat="43.20803" lon="5.67157">
        <ele>239.02490234375</ele>
        <time>2012-04-27T10:21:57Z</time>
      </trkpt>
      <trkpt lat="43.20775" lon="5.67173">
        <ele>235.66027832031</ele>
        <time>2012-04-27T10:22:01Z</time>
      </trkpt>
      <trkpt lat="43.20769" lon="5.67178">
        <ele>235.66027832031</ele>
        <time>2012-04-27T10:22:02Z</time>
      </trkpt>
      <trkpt lat="43.20754" lon="5.67187">
        <ele>235.66027832031</ele>
        <time>2012-04-27T10:22:07Z</time>
      </trkpt>
      <trkpt lat="43.20749" lon="5.6719">
        <ele>234.21838378906</ele>
        <time>2012-04-27T10:22:12Z</time>
      </trkpt>
      <trkpt lat="43.20746" lon="5.67197">
        <ele>233.73767089844</ele>
        <time>2012-04-27T10:22:16Z</time>
      </trkpt>
      <trkpt lat="43.20742" lon="5.67201">
        <ele>233.73767089844</ele>
        <time>2012-04-27T10:22:31Z</time>
      </trkpt>
      <trkpt lat="43.20744" lon="5.672">
        <ele>234.21838378906</ele>
        <time>2012-04-27T10:23:38Z</time>
      </trkpt>
      <trkpt lat="43.20744" lon="5.672">
        <ele>234.69909667969</ele>
        <time>2012-04-27T10:23:51Z</time>
      </trkpt>
      <trkpt lat="43.20755" lon="5.67179">
        <ele>236.62170410156</ele>
        <time>2012-04-27T10:24:04Z</time>
      </trkpt>
      <trkpt lat="43.20764" lon="5.67152">
        <ele>239.98620605469</ele>
        <time>2012-04-27T10:24:18Z</time>
      </trkpt>
      <trkpt lat="43.20775" lon="5.67119">
        <ele>242.3896484375</ele>
        <time>2012-04-27T10:24:36Z</time>
      </trkpt>
      <trkpt lat="43.2079" lon="5.67086">
        <ele>245.75415039062</ele>
        <time>2012-04-27T10:24:54Z</time>
      </trkpt>
      <trkpt lat="43.2081" lon="5.67069">
        <ele>248.63818359375</ele>
        <time>2012-04-27T10:25:12Z</time>
      </trkpt>
      <trkpt lat="43.20826" lon="5.67058">
        <ele>252.00280761719</ele>
        <time>2012-04-27T10:25:25Z</time>
      </trkpt>
      <trkpt lat="43.20852" lon="5.67047">
        <ele>254.88659667969</ele>
        <time>2012-04-27T10:25:43Z</time>
      </trkpt>
      <trkpt lat="43.20861" lon="5.67042">
        <ele>256.32873535156</ele>
        <time>2012-04-27T10:25:50Z</time>
      </trkpt>
      <trkpt lat="43.20877" lon="5.67034">
        <ele>259.21264648438</ele>
        <time>2012-04-27T10:26:02Z</time>
      </trkpt>
      <trkpt lat="43.20901" lon="5.67029">
        <ele>261.13525390625</ele>
        <time>2012-04-27T10:26:22Z</time>
      </trkpt>
      <trkpt lat="43.20901" lon="5.67029">
        <ele>261.61596679688</ele>
        <time>2012-04-27T10:26:38Z</time>
      </trkpt>
      <trkpt lat="43.2093" lon="5.67044">
        <ele>264.01928710938</ele>
        <time>2012-04-27T10:27:00Z</time>
      </trkpt>
      <trkpt lat="43.20963" lon="5.67069">
        <ele>266.90319824219</ele>
        <time>2012-04-27T10:27:26Z</time>
      </trkpt>
      <trkpt lat="43.20988" lon="5.67095">
        <ele>270.26770019531</ele>
        <time>2012-04-27T10:27:48Z</time>
      </trkpt>
      <trkpt lat="43.2101" lon="5.67122">
        <ele>273.15185546875</ele>
        <time>2012-04-27T10:28:08Z</time>
      </trkpt>
      <trkpt lat="43.21024" lon="5.67139">
        <ele>276.51635742188</ele>
        <time>2012-04-27T10:28:21Z</time>
      </trkpt>
      <trkpt lat="43.21039" lon="5.67158">
        <ele>279.880859375</ele>
        <time>2012-04-27T10:28:34Z</time>
      </trkpt>
      <trkpt lat="43.21057" lon="5.67186">
        <ele>281.80358886719</ele>
        <time>2012-04-27T10:28:54Z</time>
      </trkpt>
      <trkpt lat="43.21062" lon="5.67194">
        <ele>282.28430175781</ele>
        <time>2012-04-27T10:28:59Z</time>
      </trkpt>
      <trkpt lat="43.21081" lon="5.67224">
        <ele>283.24560546875</ele>
        <time>2012-04-27T10:29:16Z</time>
      </trkpt>
      <trkpt lat="43.21111" lon="5.67226">
        <ele>285.64880371094</ele>
        <time>2012-04-27T10:29:34Z</time>
      </trkpt>
      <trkpt lat="43.21141" lon="5.67216">
        <ele>288.53295898438</ele>
        <time>2012-04-27T10:29:54Z</time>
      </trkpt>
      <trkpt lat="43.21175" lon="5.67209">
        <ele>290.93615722656</ele>
        <time>2012-04-27T10:30:14Z</time>
      </trkpt>
      <trkpt lat="43.21217" lon="5.67208">
        <ele>291.41674804688</ele>
        <time>2012-04-27T10:30:33Z</time>
      </trkpt>
      <trkpt lat="43.21257" lon="5.67207">
        <ele>291.8974609375</ele>
        <time>2012-04-27T10:30:51Z</time>
      </trkpt>
      <trkpt lat="43.21286" lon="5.67208">
        <ele>293.82006835938</ele>
        <time>2012-04-27T10:31:07Z</time>
      </trkpt>
      <trkpt lat="43.2131" lon="5.6721">
        <ele>296.22351074219</ele>
        <time>2012-04-27T10:31:22Z</time>
      </trkpt>
      <trkpt lat="43.21337" lon="5.672">
        <ele>299.10729980469</ele>
        <time>2012-04-27T10:31:41Z</time>
      </trkpt>
      <trkpt lat="43.21359" lon="5.67187">
        <ele>302.47192382812</ele>
        <time>2012-04-27T10:31:57Z</time>
      </trkpt>
      <trkpt lat="43.21382" lon="5.67176">
        <ele>305.35595703125</ele>
        <time>2012-04-27T10:32:13Z</time>
      </trkpt>
      <trkpt lat="43.2142" lon="5.67163">
        <ele>307.75927734375</ele>
        <time>2012-04-27T10:32:39Z</time>
      </trkpt>
      <trkpt lat="43.21455" lon="5.67152">
        <ele>310.64306640625</ele>
        <time>2012-04-27T10:33:03Z</time>
      </trkpt>
      <trkpt lat="43.21486" lon="5.67142">
        <ele>314.0078125</ele>
        <time>2012-04-27T10:33:23Z</time>
      </trkpt>
      <trkpt lat="43.21527" lon="5.67139">
        <ele>316.89172363281</ele>
        <time>2012-04-27T10:33:48Z</time>
      </trkpt>
      <trkpt lat="43.21562" lon="5.67132">
        <ele>318.81433105469</ele>
        <time>2012-04-27T10:34:09Z</time>
      </trkpt>
      <trkpt lat="43.21604" lon="5.67127">
        <ele>322.17895507812</ele>
        <time>2012-04-27T10:34:35Z</time>
      </trkpt>
      <trkpt lat="43.2164" lon="5.67132">
        <ele>323.62097167969</ele>
        <time>2012-04-27T10:34:57Z</time>
      </trkpt>
      <trkpt lat="43.21689" lon="5.67121">
        <ele>325.06298828125</ele>
        <time>2012-04-27T10:35:19Z</time>
      </trkpt>
      <trkpt lat="43.21699" lon="5.67118">
        <ele>326.5048828125</ele>
        <time>2012-04-27T10:35:24Z</time>
      </trkpt>
      <trkpt lat="43.21736" lon="5.67117">
        <ele>328.90832519531</ele>
        <time>2012-04-27T10:35:46Z</time>
      </trkpt>
      <trkpt lat="43.21748" lon="5.67121">
        <ele>330.35021972656</ele>
        <time>2012-04-27T10:35:55Z</time>
      </trkpt>
      <trkpt lat="43.21755" lon="5.67135">
        <ele>331.79211425781</ele>
        <time>2012-04-27T10:36:04Z</time>
      </trkpt>
      <trkpt lat="43.21769" lon="5.67153">
        <ele>332.27282714844</ele>
        <time>2012-04-27T10:36:17Z</time>
      </trkpt>
      <trkpt lat="43.21787" lon="5.67181">
        <ele>334.67614746094</ele>
        <time>2012-04-27T10:36:37Z</time>
      </trkpt>
      <trkpt lat="43.21807" lon="5.67214">
        <ele>338.04077148438</ele>
        <time>2012-04-27T10:36:59Z</time>
      </trkpt>
      <trkpt lat="43.21808" lon="5.67217">
        <ele>338.04077148438</ele>
        <time>2012-04-27T10:37:01Z</time>
      </trkpt>
      <trkpt lat="43.21824" lon="5.67244">
        <ele>339.00207519531</ele>
        <time>2012-04-27T10:37:19Z</time>
      </trkpt>
      <trkpt lat="43.21847" lon="5.67279">
        <ele>340.92468261719</ele>
        <time>2012-04-27T10:37:41Z</time>
      </trkpt>
      <trkpt lat="43.21848" lon="5.67281">
        <ele>340.92468261719</ele>
        <time>2012-04-27T10:37:42Z</time>
      </trkpt>
      <trkpt lat="43.21852" lon="5.67285">
        <ele>340.92468261719</ele>
        <time>2012-04-27T10:37:45Z</time>
      </trkpt>
      <trkpt lat="43.2187" lon="5.67306">
        <ele>343.32788085938</ele>
        <time>2012-04-27T10:38:00Z</time>
      </trkpt>
      <trkpt lat="43.21882" lon="5.67313">
        <ele>343.80859375</ele>
        <time>2012-04-27T10:38:09Z</time>
      </trkpt>
      <trkpt lat="43.21893" lon="5.67317">
        <ele>345.25061035156</ele>
        <time>2012-04-27T10:38:23Z</time>
      </trkpt>
      <trkpt lat="43.21902" lon="5.67313">
        <ele>349.09582519531</ele>
        <time>2012-04-27T10:38:40Z</time>
      </trkpt>
      <trkpt lat="43.21902" lon="5.67313">
        <ele>348.615234375</ele>
        <time>2012-04-27T10:38:45Z</time>
      </trkpt>
      <trkpt lat="43.21924" lon="5.67303">
        <ele>351.97985839844</ele>
        <time>2012-04-27T10:39:03Z</time>
      </trkpt>
      <trkpt lat="43.21937" lon="5.67296">
        <ele>354.38317871094</ele>
        <time>2012-04-27T10:39:12Z</time>
      </trkpt>
      <trkpt lat="43.2196" lon="5.67286">
        <ele>357.26708984375</ele>
        <time>2012-04-27T10:39:29Z</time>
      </trkpt>
      <trkpt lat="43.21983" lon="5.67286">
        <ele>360.15112304688</ele>
        <time>2012-04-27T10:39:46Z</time>
      </trkpt>
      <trkpt lat="43.22005" lon="5.67292">
        <ele>361.59313964844</ele>
        <time>2012-04-27T10:40:01Z</time>
      </trkpt>
      <trkpt lat="43.22029" lon="5.6731">
        <ele>361.11242675781</ele>
        <time>2012-04-27T10:40:17Z</time>
      </trkpt>
      <trkpt lat="43.22043" lon="5.67333">
        <ele>360.15112304688</ele>
        <time>2012-04-27T10:41:12Z</time>
      </trkpt>
      <trkpt lat="43.22052" lon="5.67373">
        <ele>359.18969726562</ele>
        <time>2012-04-27T10:41:22Z</time>
      </trkpt>
      <trkpt lat="43.22067" lon="5.67418">
        <ele>361.11242675781</ele>
        <time>2012-04-27T10:41:36Z</time>
      </trkpt>
      <trkpt lat="43.22072" lon="5.6742">
        <ele>362.55432128906</ele>
        <time>2012-04-27T10:41:39Z</time>
      </trkpt>
      <trkpt lat="43.2208" lon="5.67402">
        <ele>362.07373046875</ele>
        <time>2012-04-27T10:41:50Z</time>
      </trkpt>
      <trkpt lat="43.22094" lon="5.67367">
        <ele>365.43835449219</ele>
        <time>2012-04-27T10:42:11Z</time>
      </trkpt>
      <trkpt lat="43.22102" lon="5.67345">
        <ele>368.80297851562</ele>
        <time>2012-04-27T10:42:24Z</time>
      </trkpt>
      <trkpt lat="43.22112" lon="5.67327">
        <ele>371.68688964844</ele>
        <time>2012-04-27T10:42:36Z</time>
      </trkpt>
      <trkpt lat="43.22113" lon="5.67325">
        <ele>372.16748046875</ele>
        <time>2012-04-27T10:42:55Z</time>
      </trkpt>
      <trkpt lat="43.22125" lon="5.67303">
        <ele>375.05151367188</ele>
        <time>2012-04-27T10:43:58Z</time>
      </trkpt>
      <trkpt lat="43.22137" lon="5.67283">
        <ele>378.41613769531</ele>
        <time>2012-04-27T10:44:10Z</time>
      </trkpt>
      <trkpt lat="43.22151" lon="5.6726">
        <ele>381.30004882812</ele>
        <time>2012-04-27T10:44:25Z</time>
      </trkpt>
      <trkpt lat="43.22163" lon="5.67242">
        <ele>384.18408203125</ele>
        <time>2012-04-27T10:44:45Z</time>
      </trkpt>
      <trkpt lat="43.2217" lon="5.67227">
        <ele>385.6259765625</ele>
        <time>2012-04-27T10:45:41Z</time>
      </trkpt>
      <trkpt lat="43.22175" lon="5.67217">
        <ele>387.06799316406</ele>
        <time>2012-04-27T10:45:47Z</time>
      </trkpt>
      <trkpt lat="43.22189" lon="5.67194">
        <ele>390.4326171875</ele>
        <time>2012-04-27T10:46:02Z</time>
      </trkpt>
      <trkpt lat="43.22204" lon="5.67174">
        <ele>393.31652832031</ele>
        <time>2012-04-27T10:46:16Z</time>
      </trkpt>
      <trkpt lat="43.22221" lon="5.67155">
        <ele>396.68115234375</ele>
        <time>2012-04-27T10:46:31Z</time>
      </trkpt>
      <trkpt lat="43.22237" lon="5.6714">
        <ele>400.0458984375</ele>
        <time>2012-04-27T10:46:45Z</time>
      </trkpt>
      <trkpt lat="43.22258" lon="5.67115">
        <ele>402.9296875</ele>
        <time>2012-04-27T10:47:06Z</time>
      </trkpt>
      <trkpt lat="43.22284" lon="5.67093">
        <ele>405.81372070312</ele>
        <time>2012-04-27T10:47:28Z</time>
      </trkpt>
      <trkpt lat="43.22314" lon="5.6707">
        <ele>408.69763183594</ele>
        <time>2012-04-27T10:47:52Z</time>
      </trkpt>
      <trkpt lat="43.22329" lon="5.67058">
        <ele>409.65905761719</ele>
        <time>2012-04-27T10:48:05Z</time>
      </trkpt>
      <trkpt lat="43.22362" lon="5.67033">
        <ele>412.06225585938</ele>
        <time>2012-04-27T10:48:27Z</time>
      </trkpt>
      <trkpt lat="43.22391" lon="5.67014">
        <ele>414.46545410156</ele>
        <time>2012-04-27T10:48:46Z</time>
      </trkpt>
      <trkpt lat="43.22412" lon="5.66994">
        <ele>415.42687988281</ele>
        <time>2012-04-27T10:48:59Z</time>
      </trkpt>
      <trkpt lat="43.22417" lon="5.66992">
        <ele>415.90747070312</ele>
        <time>2012-04-27T10:49:03Z</time>
      </trkpt>
      <trkpt lat="43.22444" lon="5.66979">
        <ele>416.38818359375</ele>
        <time>2012-04-27T10:49:18Z</time>
      </trkpt>
      <trkpt lat="43.22497" lon="5.66938">
        <ele>415.42687988281</ele>
        <time>2012-04-27T10:49:36Z</time>
      </trkpt>
      <trkpt lat="43.22541" lon="5.66905">
        <ele>416.86889648438</ele>
        <time>2012-04-27T10:49:53Z</time>
      </trkpt>
      <trkpt lat="43.22589" lon="5.66882">
        <ele>415.42687988281</ele>
        <time>2012-04-27T10:50:08Z</time>
      </trkpt>
      <trkpt lat="43.22598" lon="5.66882">
        <ele>414.94616699219</ele>
        <time>2012-04-27T10:50:10Z</time>
      </trkpt>
      <trkpt lat="43.22634" lon="5.66868">
        <ele>416.38818359375</ele>
        <time>2012-04-27T10:50:19Z</time>
      </trkpt>
      <trkpt lat="43.22662" lon="5.66858">
        <ele>417.83020019531</ele>
        <time>2012-04-27T10:50:32Z</time>
      </trkpt>
      <trkpt lat="43.22664" lon="5.66857">
        <ele>417.83020019531</ele>
        <time>2012-04-27T10:50:33Z</time>
      </trkpt>
      <trkpt lat="43.22687" lon="5.66839">
        <ele>420.71411132812</ele>
        <time>2012-04-27T10:50:49Z</time>
      </trkpt>
      <trkpt lat="43.22703" lon="5.66826">
        <ele>423.11743164062</ele>
        <time>2012-04-27T10:51:01Z</time>
      </trkpt>
      <trkpt lat="43.22724" lon="5.66806">
        <ele>425.04016113281</ele>
        <time>2012-04-27T10:51:19Z</time>
      </trkpt>
      <trkpt lat="43.22745" lon="5.6682">
        <ele>425.52075195312</ele>
        <time>2012-04-27T10:51:33Z</time>
      </trkpt>
      <trkpt lat="43.22745" lon="5.66857">
        <ele>426.00134277344</ele>
        <time>2012-04-27T10:51:47Z</time>
      </trkpt>
      <trkpt lat="43.22744" lon="5.66889">
        <ele>426.00134277344</ele>
        <time>2012-04-27T10:51:59Z</time>
      </trkpt>
      <trkpt lat="43.22743" lon="5.66918">
        <ele>426.00134277344</ele>
        <time>2012-04-27T10:52:07Z</time>
      </trkpt>
      <trkpt lat="43.2276" lon="5.66956">
        <ele>424.55944824219</ele>
        <time>2012-04-27T10:52:20Z</time>
      </trkpt>
      <trkpt lat="43.22774" lon="5.66978">
        <ele>426.96276855469</ele>
        <time>2012-04-27T10:52:27Z</time>
      </trkpt>
      <trkpt lat="43.22808" lon="5.67028">
        <ele>426.48205566406</ele>
        <time>2012-04-27T10:52:44Z</time>
      </trkpt>
      <trkpt lat="43.22802" lon="5.67065">
        <ele>426.48205566406</ele>
        <time>2012-04-27T10:52:56Z</time>
      </trkpt>
      <trkpt lat="43.22782" lon="5.67104">
        <ele>426.00134277344</ele>
        <time>2012-04-27T10:53:08Z</time>
      </trkpt>
      <trkpt lat="43.22764" lon="5.67154">
        <ele>426.96276855469</ele>
        <time>2012-04-27T10:53:24Z</time>
      </trkpt>
      <trkpt lat="43.22769" lon="5.67208">
        <ele>426.96276855469</ele>
        <time>2012-04-27T10:53:38Z</time>
      </trkpt>
      <trkpt lat="43.22774" lon="5.67229">
        <ele>427.92395019531</ele>
        <time>2012-04-27T10:53:46Z</time>
      </trkpt>
      <trkpt lat="43.2278" lon="5.67265">
        <ele>430.32727050781</ele>
        <time>2012-04-27T10:54:01Z</time>
      </trkpt>
      <trkpt lat="43.2279" lon="5.67311">
        <ele>431.76916503906</ele>
        <time>2012-04-27T10:54:20Z</time>
      </trkpt>
      <trkpt lat="43.22792" lon="5.67334">
        <ele>433.69189453125</ele>
        <time>2012-04-27T10:54:30Z</time>
      </trkpt>
      <trkpt lat="43.22804" lon="5.67388">
        <ele>431.28857421875</ele>
        <time>2012-04-27T10:54:46Z</time>
      </trkpt>
      <trkpt lat="43.22818" lon="5.67444">
        <ele>430.80798339844</ele>
        <time>2012-04-27T10:54:59Z</time>
      </trkpt>
      <trkpt lat="43.22828" lon="5.67497">
        <ele>431.76916503906</ele>
        <time>2012-04-27T10:55:14Z</time>
      </trkpt>
      <trkpt lat="43.22842" lon="5.67555">
        <ele>434.6533203125</ele>
        <time>2012-04-27T10:55:35Z</time>
      </trkpt>
      <trkpt lat="43.22862" lon="5.676">
        <ele>436.57592773438</ele>
        <time>2012-04-27T10:55:55Z</time>
      </trkpt>
      <trkpt lat="43.22879" lon="5.67647">
        <ele>438.01782226562</ele>
        <time>2012-04-27T10:56:14Z</time>
      </trkpt>
      <trkpt lat="43.22912" lon="5.67692">
        <ele>436.57592773438</ele>
        <time>2012-04-27T10:56:30Z</time>
      </trkpt>
      <trkpt lat="43.22942" lon="5.67726">
        <ele>437.537109375</ele>
        <time>2012-04-27T10:56:46Z</time>
      </trkpt>
      <trkpt lat="43.2295" lon="5.67777">
        <ele>438.49853515625</ele>
        <time>2012-04-27T10:57:04Z</time>
      </trkpt>
      <trkpt lat="43.22949" lon="5.67785">
        <ele>439.9404296875</ele>
        <time>2012-04-27T10:57:07Z</time>
      </trkpt>
      <trkpt lat="43.22936" lon="5.67842">
        <ele>438.97912597656</ele>
        <time>2012-04-27T10:57:23Z</time>
      </trkpt>
      <trkpt lat="43.22922" lon="5.67904">
        <ele>438.97912597656</ele>
        <time>2012-04-27T10:57:38Z</time>
      </trkpt>
      <trkpt lat="43.22914" lon="5.67955">
        <ele>439.45971679688</ele>
        <time>2012-04-27T10:57:56Z</time>
      </trkpt>
      <trkpt lat="43.22921" lon="5.67984">
        <ele>438.97912597656</ele>
        <time>2012-04-27T10:58:04Z</time>
      </trkpt>
      <trkpt lat="43.22929" lon="5.68025">
        <ele>439.45971679688</ele>
        <time>2012-04-27T10:58:17Z</time>
      </trkpt>
      <trkpt lat="43.22947" lon="5.68047">
        <ele>442.82446289062</ele>
        <time>2012-04-27T10:58:34Z</time>
      </trkpt>
      <trkpt lat="43.22969" lon="5.68054">
        <ele>445.70837402344</ele>
        <time>2012-04-27T10:58:49Z</time>
      </trkpt>
      <trkpt lat="43.23002" lon="5.68064">
        <ele>448.59240722656</ele>
        <time>2012-04-27T10:59:11Z</time>
      </trkpt>
      <trkpt lat="43.23027" lon="5.68069">
        <ele>451.95703125</ele>
        <time>2012-04-27T10:59:27Z</time>
      </trkpt>
      <trkpt lat="43.2305" lon="5.68077">
        <ele>455.32153320312</ele>
        <time>2012-04-27T10:59:42Z</time>
      </trkpt>
      <trkpt lat="43.23082" lon="5.68089">
        <ele>457.72497558594</ele>
        <time>2012-04-27T11:00:03Z</time>
      </trkpt>
      <trkpt lat="43.23112" lon="5.68107">
        <ele>458.68615722656</ele>
        <time>2012-04-27T11:00:26Z</time>
      </trkpt>
      <trkpt lat="43.23116" lon="5.68111">
        <ele>458.68615722656</ele>
        <time>2012-04-27T11:00:37Z</time>
      </trkpt>
      <trkpt lat="43.23124" lon="5.68119">
        <ele>457.72497558594</ele>
        <time>2012-04-27T11:01:27Z</time>
      </trkpt>
      <trkpt lat="43.23125" lon="5.68121">
        <ele>457.24426269531</ele>
        <time>2012-04-27T11:01:48Z</time>
      </trkpt>
      <trkpt lat="43.23127" lon="5.68123">
        <ele>456.76354980469</ele>
        <time>2012-04-27T11:01:50Z</time>
      </trkpt>
      <trkpt lat="43.2315" lon="5.68135">
        <ele>453.39892578125</ele>
        <time>2012-04-27T11:02:00Z</time>
      </trkpt>
      <trkpt lat="43.23163" lon="5.6814">
        <ele>450.03442382812</ele>
        <time>2012-04-27T11:02:09Z</time>
      </trkpt>
      <trkpt lat="43.23166" lon="5.68142">
        <ele>449.5537109375</ele>
        <time>2012-04-27T11:02:11Z</time>
      </trkpt>
      <trkpt lat="43.23168" lon="5.68143">
        <ele>448.11181640625</ele>
        <time>2012-04-27T11:02:14Z</time>
      </trkpt>
      <trkpt lat="43.23169" lon="5.68144">
        <ele>447.63098144531</ele>
        <time>2012-04-27T11:02:17Z</time>
      </trkpt>
      <trkpt lat="43.23178" lon="5.68145">
        <ele>444.26647949219</ele>
        <time>2012-04-27T11:02:25Z</time>
      </trkpt>
      <trkpt lat="43.23182" lon="5.68147">
        <ele>442.82446289062</ele>
        <time>2012-04-27T11:02:42Z</time>
      </trkpt>
      <trkpt lat="43.23188" lon="5.6815">
        <ele>438.97912597656</ele>
        <time>2012-04-27T11:02:48Z</time>
      </trkpt>
      <trkpt lat="43.23196" lon="5.68154">
        <ele>436.09521484375</ele>
        <time>2012-04-27T11:02:56Z</time>
      </trkpt>
      <trkpt lat="43.23197" lon="5.68158">
        <ele>434.6533203125</ele>
        <time>2012-04-27T11:03:00Z</time>
      </trkpt>
      <trkpt lat="43.23202" lon="5.68164">
        <ele>431.28857421875</ele>
        <time>2012-04-27T11:03:05Z</time>
      </trkpt>
      <trkpt lat="43.2321" lon="5.68171">
        <ele>427.443359375</ele>
        <time>2012-04-27T11:03:10Z</time>
      </trkpt>
      <trkpt lat="43.23217" lon="5.68177">
        <ele>423.59802246094</ele>
        <time>2012-04-27T11:03:14Z</time>
      </trkpt>
      <trkpt lat="43.23229" lon="5.68187">
        <ele>420.2333984375</ele>
        <time>2012-04-27T11:03:19Z</time>
      </trkpt>
      <trkpt lat="43.23239" lon="5.68196">
        <ele>416.86889648438</ele>
        <time>2012-04-27T11:03:23Z</time>
      </trkpt>
      <trkpt lat="43.23252" lon="5.68206">
        <ele>413.98486328125</ele>
        <time>2012-04-27T11:03:27Z</time>
      </trkpt>
      <trkpt lat="43.23255" lon="5.68207">
        <ele>413.50427246094</ele>
        <time>2012-04-27T11:03:28Z</time>
      </trkpt>
      <trkpt lat="43.23268" lon="5.68211">
        <ele>410.1396484375</ele>
        <time>2012-04-27T11:03:31Z</time>
      </trkpt>
      <trkpt lat="43.23274" lon="5.68215">
        <ele>409.17834472656</ele>
        <time>2012-04-27T11:03:33Z</time>
      </trkpt>
      <trkpt lat="43.23284" lon="5.68225">
        <ele>405.81372070312</ele>
        <time>2012-04-27T11:03:37Z</time>
      </trkpt>
      <trkpt lat="43.23288" lon="5.68227">
        <ele>405.81372070312</ele>
        <time>2012-04-27T11:03:38Z</time>
      </trkpt>
      <trkpt lat="43.23303" lon="5.68239">
        <ele>402.9296875</ele>
        <time>2012-04-27T11:03:42Z</time>
      </trkpt>
      <trkpt lat="43.23322" lon="5.68234">
        <ele>401.96850585938</ele>
        <time>2012-04-27T11:03:46Z</time>
      </trkpt>
      <trkpt lat="43.23347" lon="5.68225">
        <ele>398.60375976562</ele>
        <time>2012-04-27T11:03:52Z</time>
      </trkpt>
      <trkpt lat="43.23355" lon="5.68226">
        <ele>397.16174316406</ele>
        <time>2012-04-27T11:03:54Z</time>
      </trkpt>
      <trkpt lat="43.23388" lon="5.68219">
        <ele>392.35534667969</ele>
        <time>2012-04-27T11:04:02Z</time>
      </trkpt>
      <trkpt lat="43.23392" lon="5.68215">
        <ele>392.35534667969</ele>
        <time>2012-04-27T11:04:03Z</time>
      </trkpt>
      <trkpt lat="43.23396" lon="5.68209">
        <ele>392.35534667969</ele>
        <time>2012-04-27T11:04:04Z</time>
      </trkpt>
      <trkpt lat="43.23404" lon="5.68195">
        <ele>392.35534667969</ele>
        <time>2012-04-27T11:04:07Z</time>
      </trkpt>
      <trkpt lat="43.23409" lon="5.68193">
        <ele>391.39379882812</ele>
        <time>2012-04-27T11:04:09Z</time>
      </trkpt>
      <trkpt lat="43.23413" lon="5.68182">
        <ele>391.87451171875</ele>
        <time>2012-04-27T11:04:15Z</time>
      </trkpt>
      <trkpt lat="43.23414" lon="5.68167">
        <ele>392.8359375</ele>
        <time>2012-04-27T11:04:21Z</time>
      </trkpt>
      <trkpt lat="43.23416" lon="5.68156">
        <ele>392.8359375</ele>
        <time>2012-04-27T11:04:25Z</time>
      </trkpt>
      <trkpt lat="43.23437" lon="5.68116">
        <ele>392.8359375</ele>
        <time>2012-04-27T11:04:40Z</time>
      </trkpt>
      <trkpt lat="43.23443" lon="5.68106">
        <ele>393.31652832031</ele>
        <time>2012-04-27T11:04:44Z</time>
      </trkpt>
      <trkpt lat="43.2345" lon="5.68067">
        <ele>394.27795410156</ele>
        <time>2012-04-27T11:04:55Z</time>
      </trkpt>
      <trkpt lat="43.23445" lon="5.68072">
        <ele>394.27795410156</ele>
        <time>2012-04-27T11:05:02Z</time>
      </trkpt>
      <trkpt lat="43.23451" lon="5.68082">
        <ele>392.8359375</ele>
        <time>2012-04-27T11:05:10Z</time>
      </trkpt>
      <trkpt lat="43.23453" lon="5.68079">
        <ele>392.8359375</ele>
        <time>2012-04-27T11:05:11Z</time>
      </trkpt>
      <trkpt lat="43.23469" lon="5.68066">
        <ele>391.39379882812</ele>
        <time>2012-04-27T11:05:17Z</time>
      </trkpt>
      <trkpt lat="43.23482" lon="5.68025">
        <ele>391.39379882812</ele>
        <time>2012-04-27T11:05:26Z</time>
      </trkpt>
      <trkpt lat="43.23481" lon="5.68022">
        <ele>391.87451171875</ele>
        <time>2012-04-27T11:05:27Z</time>
      </trkpt>
      <trkpt lat="43.23492" lon="5.67976">
        <ele>393.31652832031</ele>
        <time>2012-04-27T11:05:40Z</time>
      </trkpt>
      <trkpt lat="43.23499" lon="5.67921">
        <ele>394.75854492188</ele>
        <time>2012-04-27T11:05:56Z</time>
      </trkpt>
      <trkpt lat="43.23501" lon="5.67895">
        <ele>395.71984863281</ele>
        <time>2012-04-27T11:06:03Z</time>
      </trkpt>
      <trkpt lat="43.23503" lon="5.67873">
        <ele>396.68115234375</ele>
        <time>2012-04-27T11:06:10Z</time>
      </trkpt>
      <trkpt lat="43.23494" lon="5.6782">
        <ele>397.64245605469</ele>
        <time>2012-04-27T11:06:26Z</time>
      </trkpt>
      <trkpt lat="43.23492" lon="5.67759">
        <ele>400.0458984375</ele>
        <time>2012-04-27T11:06:45Z</time>
      </trkpt>
      <trkpt lat="43.2349" lon="5.67692">
        <ele>400.52648925781</ele>
        <time>2012-04-27T11:07:05Z</time>
      </trkpt>
      <trkpt lat="43.23481" lon="5.67612">
        <ele>400.0458984375</ele>
        <time>2012-04-27T11:07:23Z</time>
      </trkpt>
      <trkpt lat="43.23467" lon="5.67531">
        <ele>397.16174316406</ele>
        <time>2012-04-27T11:07:38Z</time>
      </trkpt>
      <trkpt lat="43.23454" lon="5.67511">
        <ele>396.68115234375</ele>
        <time>2012-04-27T11:07:42Z</time>
      </trkpt>
      <trkpt lat="43.23426" lon="5.67469">
        <ele>397.16174316406</ele>
        <time>2012-04-27T11:07:53Z</time>
      </trkpt>
      <trkpt lat="43.23407" lon="5.67437">
        <ele>397.16174316406</ele>
        <time>2012-04-27T11:08:03Z</time>
      </trkpt>
      <trkpt lat="43.23403" lon="5.6742">
        <ele>397.64245605469</ele>
        <time>2012-04-27T11:08:08Z</time>
      </trkpt>
      <trkpt lat="43.23387" lon="5.67359">
        <ele>397.64245605469</ele>
        <time>2012-04-27T11:08:23Z</time>
      </trkpt>
      <trkpt lat="43.23374" lon="5.67299">
        <ele>397.16174316406</ele>
        <time>2012-04-27T11:08:36Z</time>
      </trkpt>
      <trkpt lat="43.23374" lon="5.67295">
        <ele>397.16174316406</ele>
        <time>2012-04-27T11:08:37Z</time>
      </trkpt>
      <trkpt lat="43.23381" lon="5.67282">
        <ele>397.16174316406</ele>
        <time>2012-04-27T11:08:47Z</time>
      </trkpt>
      <trkpt lat="43.23383" lon="5.67278">
        <ele>396.68115234375</ele>
        <time>2012-04-27T11:08:52Z</time>
      </trkpt>
      <trkpt lat="43.23388" lon="5.67256">
        <ele>394.27795410156</ele>
        <time>2012-04-27T11:08:57Z</time>
      </trkpt>
      <trkpt lat="43.23391" lon="5.67244">
        <ele>393.31652832031</ele>
        <time>2012-04-27T11:09:03Z</time>
      </trkpt>
      <trkpt lat="43.23403" lon="5.67238">
        <ele>394.27795410156</ele>
        <time>2012-04-27T11:09:07Z</time>
      </trkpt>
      <trkpt lat="43.23427" lon="5.6722">
        <ele>393.31652832031</ele>
        <time>2012-04-27T11:09:16Z</time>
      </trkpt>
      <trkpt lat="43.23463" lon="5.67189">
        <ele>393.31652832031</ele>
        <time>2012-04-27T11:09:30Z</time>
      </trkpt>
      <trkpt lat="43.23468" lon="5.67177">
        <ele>393.31652832031</ele>
        <time>2012-04-27T11:09:33Z</time>
      </trkpt>
      <trkpt lat="43.2348" lon="5.67108">
        <ele>395.23913574219</ele>
        <time>2012-04-27T11:09:50Z</time>
      </trkpt>
      <trkpt lat="43.23493" lon="5.67067">
        <ele>395.71984863281</ele>
        <time>2012-04-27T11:10:02Z</time>
      </trkpt>
      <trkpt lat="43.23493" lon="5.67007">
        <ele>396.68115234375</ele>
        <time>2012-04-27T11:10:19Z</time>
      </trkpt>
      <trkpt lat="43.23497" lon="5.66952">
        <ele>397.64245605469</ele>
        <time>2012-04-27T11:10:34Z</time>
      </trkpt>
      <trkpt lat="43.235" lon="5.66888">
        <ele>398.12316894531</ele>
        <time>2012-04-27T11:10:49Z</time>
      </trkpt>
      <trkpt lat="43.23508" lon="5.66835">
        <ele>397.64245605469</ele>
        <time>2012-04-27T11:11:01Z</time>
      </trkpt>
      <trkpt lat="43.23531" lon="5.66744">
        <ele>395.23913574219</ele>
        <time>2012-04-27T11:11:17Z</time>
      </trkpt>
      <trkpt lat="43.23537" lon="5.66724">
        <ele>394.75854492188</ele>
        <time>2012-04-27T11:11:20Z</time>
      </trkpt>
      <trkpt lat="43.23538" lon="5.66674">
        <ele>392.8359375</ele>
        <time>2012-04-27T11:11:26Z</time>
      </trkpt>
      <trkpt lat="43.23553" lon="5.66578">
        <ele>391.39379882812</ele>
        <time>2012-04-27T11:11:37Z</time>
      </trkpt>
      <trkpt lat="43.23555" lon="5.6657">
        <ele>391.39379882812</ele>
        <time>2012-04-27T11:11:38Z</time>
      </trkpt>
      <trkpt lat="43.2356" lon="5.66509">
        <ele>390.91320800781</ele>
        <time>2012-04-27T11:11:46Z</time>
      </trkpt>
      <trkpt lat="43.23561" lon="5.66464">
        <ele>390.4326171875</ele>
        <time>2012-04-27T11:11:52Z</time>
      </trkpt>
      <trkpt lat="43.23559" lon="5.66442">
        <ele>391.39379882812</ele>
        <time>2012-04-27T11:11:55Z</time>
      </trkpt>
      <trkpt lat="43.23563" lon="5.66389">
        <ele>392.35534667969</ele>
        <time>2012-04-27T11:12:03Z</time>
      </trkpt>
      <trkpt lat="43.23564" lon="5.66373">
        <ele>393.31652832031</ele>
        <time>2012-04-27T11:12:06Z</time>
      </trkpt>
      <trkpt lat="43.23568" lon="5.66337">
        <ele>394.75854492188</ele>
        <time>2012-04-27T11:12:16Z</time>
      </trkpt>
      <trkpt lat="43.23574" lon="5.66289">
        <ele>396.68115234375</ele>
        <time>2012-04-27T11:12:32Z</time>
      </trkpt>
      <trkpt lat="43.23581" lon="5.66252">
        <ele>397.64245605469</ele>
        <time>2012-04-27T11:12:45Z</time>
      </trkpt>
      <trkpt lat="43.23587" lon="5.66184">
        <ele>397.16174316406</ele>
        <time>2012-04-27T11:13:01Z</time>
      </trkpt>
      <trkpt lat="43.23588" lon="5.66137">
        <ele>398.12316894531</ele>
        <time>2012-04-27T11:13:14Z</time>
      </trkpt>
      <trkpt lat="43.23589" lon="5.66135">
        <ele>398.12316894531</ele>
        <time>2012-04-27T11:13:15Z</time>
      </trkpt>
      <trkpt lat="43.23591" lon="5.66124">
        <ele>398.60375976562</ele>
        <time>2012-04-27T11:13:19Z</time>
      </trkpt>
      <trkpt lat="43.23593" lon="5.66076">
        <ele>399.56506347656</ele>
        <time>2012-04-27T11:13:35Z</time>
      </trkpt>
      <trkpt lat="43.23594" lon="5.6602">
        <ele>401.00708007812</ele>
        <time>2012-04-27T11:13:54Z</time>
      </trkpt>
      <trkpt lat="43.23601" lon="5.65953">
        <ele>401.96850585938</ele>
        <time>2012-04-27T11:14:15Z</time>
      </trkpt>
      <trkpt lat="43.23606" lon="5.65899">
        <ele>403.41040039062</ele>
        <time>2012-04-27T11:14:33Z</time>
      </trkpt>
      <trkpt lat="43.23608" lon="5.65846">
        <ele>405.3330078125</ele>
        <time>2012-04-27T11:14:51Z</time>
      </trkpt>
      <trkpt lat="43.23615" lon="5.65787">
        <ele>407.25561523438</ele>
        <time>2012-04-27T11:15:12Z</time>
      </trkpt>
      <trkpt lat="43.23625" lon="5.65741">
        <ele>410.62023925781</ele>
        <time>2012-04-27T11:15:31Z</time>
      </trkpt>
      <trkpt lat="43.23641" lon="5.65694">
        <ele>411.58166503906</ele>
        <time>2012-04-27T11:15:51Z</time>
      </trkpt>
      <trkpt lat="43.23662" lon="5.65641">
        <ele>413.98486328125</ele>
        <time>2012-04-27T11:16:13Z</time>
      </trkpt>
      <trkpt lat="43.23678" lon="5.65589">
        <ele>417.349609375</ele>
        <time>2012-04-27T11:16:33Z</time>
      </trkpt>
      <trkpt lat="43.23688" lon="5.65549">
        <ele>418.79150390625</ele>
        <time>2012-04-27T11:16:49Z</time>
      </trkpt>
      <trkpt lat="43.23689" lon="5.65547">
        <ele>418.79150390625</ele>
        <time>2012-04-27T11:16:50Z</time>
      </trkpt>
      <trkpt lat="43.23689" lon="5.65503">
        <ele>421.67541503906</ele>
        <time>2012-04-27T11:17:10Z</time>
      </trkpt>
      <trkpt lat="43.2369" lon="5.65456">
        <ele>424.55944824219</ele>
        <time>2012-04-27T11:17:30Z</time>
      </trkpt>
      <trkpt lat="43.23693" lon="5.6541">
        <ele>427.443359375</ele>
        <time>2012-04-27T11:17:51Z</time>
      </trkpt>
      <trkpt lat="43.23702" lon="5.6536">
        <ele>429.84655761719</ele>
        <time>2012-04-27T11:18:14Z</time>
      </trkpt>
      <trkpt lat="43.23713" lon="5.65311">
        <ele>432.25</ele>
        <time>2012-04-27T11:18:36Z</time>
      </trkpt>
      <trkpt lat="43.23727" lon="5.65258">
        <ele>433.69189453125</ele>
        <time>2012-04-27T11:18:57Z</time>
      </trkpt>
      <trkpt lat="43.2374" lon="5.65215">
        <ele>435.61450195312</ele>
        <time>2012-04-27T11:19:14Z</time>
      </trkpt>
      <trkpt lat="43.23758" lon="5.65166">
        <ele>438.49853515625</ele>
        <time>2012-04-27T11:19:34Z</time>
      </trkpt>
      <trkpt lat="43.23775" lon="5.65106">
        <ele>439.9404296875</ele>
        <time>2012-04-27T11:19:57Z</time>
      </trkpt>
      <trkpt lat="43.23786" lon="5.65062">
        <ele>441.86315917969</ele>
        <time>2012-04-27T11:20:13Z</time>
      </trkpt>
      <trkpt lat="43.23791" lon="5.64999">
        <ele>444.7470703125</ele>
        <time>2012-04-27T11:20:35Z</time>
      </trkpt>
      <trkpt lat="43.23795" lon="5.64959">
        <ele>446.66967773438</ele>
        <time>2012-04-27T11:20:52Z</time>
      </trkpt>
      <trkpt lat="43.23803" lon="5.64919">
        <ele>449.07299804688</ele>
        <time>2012-04-27T11:21:10Z</time>
      </trkpt>
      <trkpt lat="43.23815" lon="5.64888">
        <ele>452.43762207031</ele>
        <time>2012-04-27T11:21:26Z</time>
      </trkpt>
      <trkpt lat="43.23822" lon="5.64849">
        <ele>454.36022949219</ele>
        <time>2012-04-27T11:21:45Z</time>
      </trkpt>
      <trkpt lat="43.2383" lon="5.64807">
        <ele>454.8408203125</ele>
        <time>2012-04-27T11:22:02Z</time>
      </trkpt>
      <trkpt lat="43.23837" lon="5.64779">
        <ele>455.80224609375</ele>
        <time>2012-04-27T11:22:20Z</time>
      </trkpt>
      <trkpt lat="43.23849" lon="5.64759">
        <ele>456.76354980469</ele>
        <time>2012-04-27T11:24:48Z</time>
      </trkpt>
      <trkpt lat="43.23862" lon="5.64736">
        <ele>459.64758300781</ele>
        <time>2012-04-27T11:25:01Z</time>
      </trkpt>
      <trkpt lat="43.23867" lon="5.64731">
        <ele>460.12817382812</ele>
        <time>2012-04-27T11:25:05Z</time>
      </trkpt>
      <trkpt lat="43.23887" lon="5.64707">
        <ele>462.53137207031</ele>
        <time>2012-04-27T11:25:22Z</time>
      </trkpt>
      <trkpt lat="43.23912" lon="5.64679">
        <ele>465.41552734375</ele>
        <time>2012-04-27T11:25:42Z</time>
      </trkpt>
      <trkpt lat="43.2394" lon="5.64643">
        <ele>466.37670898438</ele>
        <time>2012-04-27T11:26:02Z</time>
      </trkpt>
      <trkpt lat="43.23962" lon="5.64618">
        <ele>469.2607421875</ele>
        <time>2012-04-27T11:26:17Z</time>
      </trkpt>
      <trkpt lat="43.23985" lon="5.64589">
        <ele>470.70263671875</ele>
        <time>2012-04-27T11:26:34Z</time>
      </trkpt>
      <trkpt lat="43.24004" lon="5.64564">
        <ele>474.06726074219</ele>
        <time>2012-04-27T11:26:49Z</time>
      </trkpt>
      <trkpt lat="43.24015" lon="5.64521">
        <ele>476.47058105469</ele>
        <time>2012-04-27T11:27:10Z</time>
      </trkpt>
      <trkpt lat="43.24002" lon="5.64494">
        <ele>478.39318847656</ele>
        <time>2012-04-27T11:27:25Z</time>
      </trkpt>
      <trkpt lat="43.23999" lon="5.6449">
        <ele>478.87390136719</ele>
        <time>2012-04-27T11:27:28Z</time>
      </trkpt>
      <trkpt lat="43.23982" lon="5.64456">
        <ele>482.23852539062</ele>
        <time>2012-04-27T11:27:48Z</time>
      </trkpt>
      <trkpt lat="43.23978" lon="5.64403">
        <ele>484.9</ele>
        <time>2012-04-27T11:28:54Z</time>
      </trkpt>
      <trkpt lat="43.24" lon="5.644">
        <ele>487</ele>
        <time>2012-04-27T11:28:57Z</time>
      </trkpt>
      <trkpt lat="43.24025" lon="5.64408">
        <ele>487.2</ele>
        <time>2012-04-27T11:29:02Z</time>
      </trkpt>
      <trkpt lat="43.24056" lon="5.64419">
        <ele>492</ele>
        <time>2012-04-27T11:29:17Z</time>
      </trkpt>
      <trkpt lat="43.24086" lon="5.64422">
        <ele>496.4</ele>
        <time>2012-04-27T11:29:37Z</time>
      </trkpt>
      <trkpt lat="43.24125" lon="5.64453">
        <ele>501.7</ele>
        <time>2012-04-27T11:29:55Z</time>
      </trkpt>
      <trkpt lat="43.24246" lon="5.64572">
        <ele>527.2</ele>
        <time>2012-04-27T11:30:08Z</time>
      </trkpt>
      <trkpt lat="43.24364" lon="5.64689">
        <ele>546.1</ele>
        <time>2012-04-27T11:30:31Z</time>
      </trkpt>
      <trkpt lat="43.24473" lon="5.64751">
        <ele>552.4</ele>
        <time>2012-04-27T11:30:53Z</time>
      </trkpt>
      <trkpt lat="43.24495" lon="5.64807">
        <ele>554.2</ele>
        <time>2012-04-27T11:31:13Z</time>
      </trkpt>
      <trkpt lat="43.24525" lon="5.64792">
        <ele>547.5</ele>
        <time>2012-04-27T11:31:32Z</time>
      </trkpt>
      <trkpt lat="43.2453" lon="5.64767">
        <ele>547.2</ele>
        <time>2012-04-27T11:31:45Z</time>
      </trkpt>
      <trkpt lat="43.24532" lon="5.64715">
        <ele>545.3</ele>
        <time>2012-04-27T11:32:02Z</time>
      </trkpt>
      <trkpt lat="43.24533" lon="5.64693">
        <ele>544.6</ele>
        <time>2012-04-27T11:32:23Z</time>
      </trkpt>
      <trkpt lat="43.24581" lon="5.64657">
        <ele>540.4</ele>
        <time>2012-04-27T11:32:42Z</time>
      </trkpt>
      <trkpt lat="43.24602" lon="5.64642">
        <ele>536.6</ele>
        <time>2012-04-27T11:33:10Z</time>
      </trkpt>
      <trkpt lat="43.24634" lon="5.6459">
        <ele>535.3</ele>
        <time>2012-04-27T11:33:12Z</time>
      </trkpt>
      <trkpt lat="43.24644" lon="5.64576">
        <ele>532.1</ele>
        <time>2012-04-27T11:33:30Z</time>
      </trkpt>
      <trkpt lat="43.24648" lon="5.64558">
        <ele>530.8</ele>
        <time>2012-04-27T11:33:47Z</time>
      </trkpt>
      <trkpt lat="43.24659" lon="5.64543">
        <ele>529.5</ele>
        <time>2012-04-27T11:34:00Z</time>
      </trkpt>
      <trkpt lat="43.24669" lon="5.6456">
        <ele>527.7</ele>
        <time>2012-04-27T11:34:22Z</time>
      </trkpt>
      <trkpt lat="43.24685" lon="5.64608">
        <ele>525.1</ele>
        <time>2012-04-27T11:40:02Z</time>
      </trkpt>
      <trkpt lat="43.24714" lon="5.64588">
        <ele>520.4</ele>
        <time>2012-04-27T11:40:22Z</time>
      </trkpt>
      <trkpt lat="43.24749" lon="5.64625">
        <ele>515.7</ele>
        <time>2012-04-27T11:40:39Z</time>
      </trkpt>
      <trkpt lat="43.24788" lon="5.64623">
        <ele>502.7</ele>
        <time>2012-04-27T11:40:52Z</time>
      </trkpt>
      <trkpt lat="43.24818" lon="5.64648">
        <ele>500.9</ele>
        <time>2012-04-27T11:40:55Z</time>
      </trkpt>
      <trkpt lat="43.24857" lon="5.64652">
        <ele>497.7</ele>
        <time>2012-04-27T11:41:00Z</time>
      </trkpt>
      <trkpt lat="43.24871" lon="5.64646">
        <ele>497.5</ele>
        <time>2012-04-27T11:41:04Z</time>
      </trkpt>
      <trkpt lat="43.24878" lon="5.64629">
        <ele>497.3</ele>
        <time>2012-04-27T11:41:07Z</time>
      </trkpt>
      <trkpt lat="43.24892" lon="5.64624">
        <ele>497.4</ele>
        <time>2012-04-27T11:41:11Z</time>
      </trkpt>
      <trkpt lat="43.24894" lon="5.6461">
        <ele>497.3</ele>
        <time>2012-04-27T11:41:15Z</time>
      </trkpt>
      <trkpt lat="43.24906" lon="5.64596">
        <ele>497.5</ele>
        <time>2012-04-27T11:41:16Z</time>
      </trkpt>
      <trkpt lat="43.24917" lon="5.64553">
        <ele>493.4</ele>
        <time>2012-04-27T11:41:19Z</time>
      </trkpt>
      <trkpt lat="43.24929" lon="5.64524">
        <ele>490.9</ele>
        <time>2012-04-27T11:41:20Z</time>
      </trkpt>
      <trkpt lat="43.24932" lon="5.64505">
        <ele>491</ele>
        <time>2012-04-27T11:41:24Z</time>
      </trkpt>
      <trkpt lat="43.24978" lon="5.64452">
        <ele>490.3</ele>
        <time>2012-04-27T11:41:27Z</time>
      </trkpt>
      <trkpt lat="43.25011" lon="5.64373">
        <ele>489.8</ele>
        <time>2012-04-27T11:41:28Z</time>
      </trkpt>
      <trkpt lat="43.25064" lon="5.64336">
        <ele>489.7</ele>
        <time>2012-04-27T11:41:36Z</time>
      </trkpt>
      <trkpt lat="43.25102" lon="5.64302">
        <ele>486.6</ele>
        <time>2012-04-27T11:41:41Z</time>
      </trkpt>
      <trkpt lat="43.25138" lon="5.64284">
        <ele>485.1</ele>
        <time>2012-04-27T11:41:48Z</time>
      </trkpt>
      <trkpt lat="43.25185" lon="5.6423">
        <ele>466.3</ele>
        <time>2012-04-27T11:41:51Z</time>
      </trkpt>
      <trkpt lat="43.25179" lon="5.64215">
        <ele>463.2</ele>
        <time>2012-04-27T11:41:52Z</time>
      </trkpt>
      <trkpt lat="43.251" lon="5.64212">
        <ele>474.8</ele>
        <time>2012-04-27T11:41:56Z</time>
      </trkpt>
      <trkpt lat="43.25072" lon="5.64228">
        <ele>476.7</ele>
        <time>2012-04-27T11:41:58Z</time>
      </trkpt>
      <trkpt lat="43.25046" lon="5.64262">
        <ele>484.5</ele>
        <time>2012-04-27T11:42:03Z</time>
      </trkpt>
      <trkpt lat="43.24959" lon="5.64162">
        <ele>450.4</ele>
        <time>2012-04-27T11:42:08Z</time>
      </trkpt>
      <trkpt lat="43.24926" lon="5.64144">
        <ele>449</ele>
        <time>2012-04-27T11:42:09Z</time>
      </trkpt>
      <trkpt lat="43.24891" lon="5.64148">
        <ele>442.5</ele>
        <time>2012-04-27T11:42:20Z</time>
      </trkpt>
      <trkpt lat="43.24862" lon="5.64154">
        <ele>439.9</ele>
        <time>2012-04-27T11:42:24Z</time>
      </trkpt>
      <trkpt lat="43.24847" lon="5.64179">
        <ele>447.8</ele>
        <time>2012-04-27T11:42:27Z</time>
      </trkpt>
      <trkpt lat="43.24853" lon="5.64252">
        <ele>453.9</ele>
        <time>2012-04-27T11:42:30Z</time>
      </trkpt>
      <trkpt lat="43.24848" lon="5.64281">
        <ele>456.2</ele>
        <time>2012-04-27T11:42:35Z</time>
      </trkpt>
      <trkpt lat="43.2484" lon="5.64306">
        <ele>456.5</ele>
        <time>2012-04-27T11:42:39Z</time>
      </trkpt>
      <trkpt lat="43.24831" lon="5.64304">
        <ele>453.6</ele>
        <time>2012-04-27T11:42:45Z</time>
      </trkpt>
      <trkpt lat="43.24822" lon="5.64289">
        <ele>453.2</ele>
        <time>2012-04-27T11:42:55Z</time>
      </trkpt>
      <trkpt lat="43.24807" lon="5.64222">
        <ele>443.7</ele>
        <time>2012-04-27T11:43:08Z</time>
      </trkpt>
      <trkpt lat="43.24805" lon="5.64204">
        <ele>442.7</ele>
        <time>2012-04-27T11:43:13Z</time>
      </trkpt>
      <trkpt lat="43.24775" lon="5.6414">
        <ele>428.7</ele>
        <time>2012-04-27T11:43:17Z</time>
      </trkpt>
      <trkpt lat="43.24752" lon="5.64139">
        <ele>428.3</ele>
        <time>2012-04-27T11:43:20Z</time>
      </trkpt>
      <trkpt lat="43.24659" lon="5.64057">
        <ele>414.4</ele>
        <time>2012-04-27T11:43:25Z</time>
      </trkpt>
      <trkpt lat="43.2464" lon="5.64055">
        <ele>413.9</ele>
        <time>2012-04-27T11:43:27Z</time>
      </trkpt>
      <trkpt lat="43.24623" lon="5.64068">
        <ele>415.3</ele>
        <time>2012-04-27T11:43:31Z</time>
      </trkpt>
      <trkpt lat="43.24602" lon="5.64076">
        <ele>417.7</ele>
        <time>2012-04-27T11:43:41Z</time>
      </trkpt>
      <trkpt lat="43.24575" lon="5.64062">
        <ele>419.1</ele>
        <time>2012-04-27T11:43:43Z</time>
      </trkpt>
      <trkpt lat="43.2452" lon="5.64059">
        <ele>418.8</ele>
        <time>2012-04-27T11:43:47Z</time>
      </trkpt>
      <trkpt lat="43.24439" lon="5.6407">
        <ele>422.6</ele>
        <time>2012-04-27T11:43:52Z</time>
      </trkpt>
      <trkpt lat="43.24384" lon="5.6411">
        <ele>426.9</ele>
        <time>2012-04-27T11:43:55Z</time>
      </trkpt>
      <trkpt lat="43.24317" lon="5.64147">
        <ele>431.6</ele>
        <time>2012-04-27T11:43:59Z</time>
      </trkpt>
      <trkpt lat="43.24193" lon="5.64154">
        <ele>444.2</ele>
        <time>2012-04-27T11:44:00Z</time>
      </trkpt>
      <trkpt lat="43.24143" lon="5.64198">
        <ele>455.5</ele>
        <time>2012-04-27T11:44:04Z</time>
      </trkpt>
      <trkpt lat="43.24119" lon="5.64199">
        <ele>457.3</ele>
        <time>2012-04-27T11:44:08Z</time>
      </trkpt>
      <trkpt lat="43.24101" lon="5.64208">
        <ele>458.4</ele>
        <time>2012-04-27T11:44:13Z</time>
      </trkpt>
      <trkpt lat="43.24061" lon="5.64218">
        <ele>467.6</ele>
        <time>2012-04-27T11:44:16Z</time>
      </trkpt>
      <trkpt lat="43.24021" lon="5.64179">
        <ele>472.5</ele>
        <time>2012-04-27T11:44:17Z</time>
      </trkpt>
      <trkpt lat="43.23992" lon="5.64204">
        <ele>478.5</ele>
        <time>2012-04-27T11:44:19Z</time>
      </trkpt>
      <trkpt lat="43.23964" lon="5.6423">
        <ele>478.7</ele>
        <time>2012-04-27T11:44:22Z</time>
      </trkpt>
      <trkpt lat="43.23962" lon="5.64233">
        <ele>477.91247558594</ele>
        <time>2012-04-27T11:44:26Z</time>
      </trkpt>
      <trkpt lat="43.23959" lon="5.64208">
        <ele>477.91247558594</ele>
        <time>2012-04-27T11:44:28Z</time>
      </trkpt>
      <trkpt lat="43.23963" lon="5.6417">
        <ele>479.3544921875</ele>
        <time>2012-04-27T11:44:37Z</time>
      </trkpt>
      <trkpt lat="43.23989" lon="5.64101">
        <ele>481.7578125</ele>
        <time>2012-04-27T11:44:39Z</time>
      </trkpt>
      <trkpt lat="43.24006" lon="5.64059">
        <ele>484.1611328125</ele>
        <time>2012-04-27T11:44:43Z</time>
      </trkpt>
      <trkpt lat="43.24016" lon="5.64027">
        <ele>486.564453125</ele>
        <time>2012-04-27T11:44:47Z</time>
      </trkpt>
      <trkpt lat="43.24021" lon="5.64">
        <ele>488.00646972656</ele>
        <time>2012-04-27T11:44:50Z</time>
      </trkpt>
      <trkpt lat="43.24027" lon="5.63953">
        <ele>491.37097167969</ele>
        <time>2012-04-27T11:44:52Z</time>
      </trkpt>
      <trkpt lat="43.24034" lon="5.63905">
        <ele>494.73559570312</ele>
        <time>2012-04-27T11:44:55Z</time>
      </trkpt>
      <trkpt lat="43.24039" lon="5.63862">
        <ele>497.13891601562</ele>
        <time>2012-04-27T11:44:58Z</time>
      </trkpt>
      <trkpt lat="43.24048" lon="5.6382">
        <ele>500.02294921875</ele>
        <time>2012-04-27T11:45:01Z</time>
      </trkpt>
      <trkpt lat="43.24057" lon="5.63792">
        <ele>503.38745117188</ele>
        <time>2012-04-27T11:45:06Z</time>
      </trkpt>
      <trkpt lat="43.24074" lon="5.63759">
        <ele>506.271484375</ele>
        <time>2012-04-27T11:45:08Z</time>
      </trkpt>
      <trkpt lat="43.24103" lon="5.6373">
        <ele>509.15539550781</ele>
        <time>2012-04-27T11:45:10Z</time>
      </trkpt>
      <trkpt lat="43.24129" lon="5.63711">
        <ele>511.55871582031</ele>
        <time>2012-04-27T11:45:14Z</time>
      </trkpt>
      <trkpt lat="43.24165" lon="5.63676">
        <ele>515.40405273438</ele>
        <time>2012-04-27T11:45:19Z</time>
      </trkpt>
      <trkpt lat="43.24168" lon="5.63673">
        <ele>516.365234375</ele>
        <time>2012-04-27T11:45:22Z</time>
      </trkpt>
      <trkpt lat="43.24199" lon="5.63642">
        <ele>515.88464355469</ele>
        <time>2012-04-27T11:45:25Z</time>
      </trkpt>
      <trkpt lat="43.24224" lon="5.63626">
        <ele>516.84594726562</ele>
        <time>2012-04-27T11:45:29Z</time>
      </trkpt>
      <trkpt lat="43.24231" lon="5.63613">
        <ele>516.84594726562</ele>
        <time>2012-04-27T11:45:33Z</time>
      </trkpt>
      <trkpt lat="43.24231" lon="5.63613">
        <ele>516.84594726562</ele>
        <time>2012-04-27T11:45:37Z</time>
      </trkpt>
      <trkpt lat="43.24233" lon="5.63611">
        <ele>515.88464355469</ele>
        <time>2012-04-27T11:45:38Z</time>
      </trkpt>
      <trkpt lat="43.24264" lon="5.63598">
        <ele>516.84594726562</ele>
        <time>2012-04-27T11:45:46Z</time>
      </trkpt>
      <trkpt lat="43.24294" lon="5.63572">
        <ele>518.28784179688</ele>
        <time>2012-04-27T11:45:52Z</time>
      </trkpt>
      <trkpt lat="43.24325" lon="5.63529">
        <ele>514.92333984375</ele>
        <time>2012-04-27T11:45:57Z</time>
      </trkpt>
      <trkpt lat="43.24331" lon="5.63514">
        <ele>512.52001953125</ele>
        <time>2012-04-27T11:46:02Z</time>
      </trkpt>
      <trkpt lat="43.24334" lon="5.63487">
        <ele>507.71350097656</ele>
        <time>2012-04-27T11:46:04Z</time>
      </trkpt>
      <trkpt lat="43.24329" lon="5.63462">
        <ele>502.90673828125</ele>
        <time>2012-04-27T11:46:08Z</time>
      </trkpt>
      <trkpt lat="43.24321" lon="5.6344">
        <ele>499.0615234375</ele>
        <time>2012-04-27T11:46:13Z</time>
      </trkpt>
      <trkpt lat="43.24312" lon="5.63409">
        <ele>495.69689941406</ele>
        <time>2012-04-27T11:46:14Z</time>
      </trkpt>
      <trkpt lat="43.24306" lon="5.63369">
        <ele>489.44836425781</ele>
        <time>2012-04-27T11:46:31Z</time>
      </trkpt>
      <trkpt lat="43.24304" lon="5.63357">
        <ele>487.04504394531</ele>
        <time>2012-04-27T11:46:40Z</time>
      </trkpt>
      <trkpt lat="43.243" lon="5.63322">
        <ele>488.9677734375</ele>
        <time>2012-04-27T11:46:42Z</time>
      </trkpt>
      <trkpt lat="43.24299" lon="5.63311">
        <ele>486.564453125</ele>
        <time>2012-04-27T11:46:44Z</time>
      </trkpt>
      <trkpt lat="43.24286" lon="5.63264">
        <ele>481.27722167969</ele>
        <time>2012-04-27T11:46:46Z</time>
      </trkpt>
      <trkpt lat="43.24271" lon="5.63229">
        <ele>478.39318847656</ele>
        <time>2012-04-27T11:46:47Z</time>
      </trkpt>
      <trkpt lat="43.24267" lon="5.63217">
        <ele>479.3544921875</ele>
        <time>2012-04-27T11:46:50Z</time>
      </trkpt>
      <trkpt lat="43.24243" lon="5.63119">
        <ele>475.98986816406</ele>
        <time>2012-04-27T11:46:51Z</time>
      </trkpt>
      <trkpt lat="43.24234" lon="5.63062">
        <ele>473.58666992188</ele>
        <time>2012-04-27T11:46:56Z</time>
      </trkpt>
      <trkpt lat="43.2424" lon="5.63">
        <ele>470.22192382812</ele>
        <time>2012-04-27T11:46:58Z</time>
      </trkpt>
      <trkpt lat="43.24248" lon="5.62975">
        <ele>465.41552734375</ele>
        <time>2012-04-27T11:47:02Z</time>
      </trkpt>
      <trkpt lat="43.24252" lon="5.62966">
        <ele>463.49279785156</ele>
        <time>2012-04-27T11:47:07Z</time>
      </trkpt>
      <trkpt lat="43.24261" lon="5.62923">
        <ele>460.12817382812</ele>
        <time>2012-04-27T11:47:13Z</time>
      </trkpt>
      <trkpt lat="43.24265" lon="5.62899">
        <ele>457.72497558594</ele>
        <time>2012-04-27T11:47:15Z</time>
      </trkpt>
      <trkpt lat="43.2428" lon="5.62841">
        <ele>457.24426269531</ele>
        <time>2012-04-27T11:47:17Z</time>
      </trkpt>
      <trkpt lat="43.24273" lon="5.62794">
        <ele>458.20556640625</ele>
        <time>2012-04-27T11:47:25Z</time>
      </trkpt>
      <trkpt lat="43.24269" lon="5.62789">
        <ele>459.16687011719</ele>
        <time>2012-04-27T11:47:26Z</time>
      </trkpt>
      <trkpt lat="43.24226" lon="5.62717">
        <ele>455.80224609375</ele>
        <time>2012-04-27T11:47:33Z</time>
      </trkpt>
      <trkpt lat="43.24205" lon="5.62685">
        <ele>450.99560546875</ele>
        <time>2012-04-27T11:47:39Z</time>
      </trkpt>
      <trkpt lat="43.24189" lon="5.62659">
        <ele>450.03442382812</ele>
        <time>2012-04-27T11:47:43Z</time>
      </trkpt>
      <trkpt lat="43.24174" lon="5.62628">
        <ele>448.11181640625</ele>
        <time>2012-04-27T11:47:45Z</time>
      </trkpt>
      <trkpt lat="43.24166" lon="5.62569">
        <ele>443.78576660156</ele>
        <time>2012-04-27T11:47:53Z</time>
      </trkpt>
      <trkpt lat="43.24164" lon="5.62528">
        <ele>443.78576660156</ele>
        <time>2012-04-27T11:47:58Z</time>
      </trkpt>
      <trkpt lat="43.24153" lon="5.62483">
        <ele>442.82446289062</ele>
        <time>2012-04-27T11:48:05Z</time>
      </trkpt>
      <trkpt lat="43.24152" lon="5.62444">
        <ele>443.78576660156</ele>
        <time>2012-04-27T11:48:07Z</time>
      </trkpt>
      <trkpt lat="43.24151" lon="5.62443">
        <ele>442.82446289062</ele>
        <time>2012-04-27T11:48:10Z</time>
      </trkpt>
      <trkpt lat="43.2414" lon="5.62441">
        <ele>442.34387207031</ele>
        <time>2012-04-27T11:48:14Z</time>
      </trkpt>
      <trkpt lat="43.24122" lon="5.62445">
        <ele>441.38244628906</ele>
        <time>2012-04-27T11:48:20Z</time>
      </trkpt>
      <trkpt lat="43.24109" lon="5.62452">
        <ele>438.49853515625</ele>
        <time>2012-04-27T11:48:25Z</time>
      </trkpt>
      <trkpt lat="43.24092" lon="5.62474">
        <ele>437.537109375</ele>
        <time>2012-04-27T11:48:31Z</time>
      </trkpt>
      <trkpt lat="43.24087" lon="5.62482">
        <ele>434.6533203125</ele>
        <time>2012-04-27T11:48:32Z</time>
      </trkpt>
      <trkpt lat="43.24078" lon="5.62473">
        <ele>431.76916503906</ele>
        <time>2012-04-27T11:48:38Z</time>
      </trkpt>
      <trkpt lat="43.24061" lon="5.62451">
        <ele>429.84655761719</ele>
        <time>2012-04-27T11:48:41Z</time>
      </trkpt>
      <trkpt lat="43.24058" lon="5.62446">
        <ele>428.88537597656</ele>
        <time>2012-04-27T11:48:45Z</time>
      </trkpt>
      <trkpt lat="43.24052" lon="5.62426">
        <ele>426.48205566406</ele>
        <time>2012-04-27T11:48:47Z</time>
      </trkpt>
      <trkpt lat="43.24034" lon="5.62397">
        <ele>423.11743164062</ele>
        <time>2012-04-27T11:48:52Z</time>
      </trkpt>
      <trkpt lat="43.24025" lon="5.62379">
        <ele>422.63671875</ele>
        <time>2012-04-27T11:48:56Z</time>
      </trkpt>
      <trkpt lat="43.24011" lon="5.62377">
        <ele>420.71411132812</ele>
        <time>2012-04-27T11:48:59Z</time>
      </trkpt>
      <trkpt lat="43.24007" lon="5.62379">
        <ele>420.71411132812</ele>
        <time>2012-04-27T11:49:04Z</time>
      </trkpt>
      <trkpt lat="43.23985" lon="5.62392">
        <ele>417.83020019531</ele>
        <time>2012-04-27T11:49:05Z</time>
      </trkpt>
      <trkpt lat="43.2396" lon="5.62405">
        <ele>415.42687988281</ele>
        <time>2012-04-27T11:49:11Z</time>
      </trkpt>
      <trkpt lat="43.23931" lon="5.62418">
        <ele>413.02355957031</ele>
        <time>2012-04-27T11:49:14Z</time>
      </trkpt>
      <trkpt lat="43.23916" lon="5.62428">
        <ele>411.58166503906</ele>
        <time>2012-04-27T11:49:19Z</time>
      </trkpt>
      <trkpt lat="43.23911" lon="5.6243">
        <ele>411.10095214844</ele>
        <time>2012-04-27T11:49:25Z</time>
      </trkpt>
      <trkpt lat="43.23902" lon="5.62433">
        <ele>410.1396484375</ele>
        <time>2012-04-27T11:49:31Z</time>
      </trkpt>
      <trkpt lat="43.23891" lon="5.62437">
        <ele>406.77490234375</ele>
        <time>2012-04-27T11:49:33Z</time>
      </trkpt>
      <trkpt lat="43.23878" lon="5.62447">
        <ele>405.3330078125</ele>
        <time>2012-04-27T11:49:37Z</time>
      </trkpt>
      <trkpt lat="43.23871" lon="5.62456">
        <ele>404.37170410156</ele>
        <time>2012-04-27T11:49:43Z</time>
      </trkpt>
      <trkpt lat="43.23839" lon="5.62469">
        <ele>400.52648925781</ele>
        <time>2012-04-27T11:49:48Z</time>
      </trkpt>
      <trkpt lat="43.23832" lon="5.62471">
        <ele>398.12316894531</ele>
        <time>2012-04-27T11:49:53Z</time>
      </trkpt>
      <trkpt lat="43.23814" lon="5.6247">
        <ele>394.27795410156</ele>
        <time>2012-04-27T11:50:04Z</time>
      </trkpt>
      <trkpt lat="43.23797" lon="5.62464">
        <ele>391.39379882812</ele>
        <time>2012-04-27T11:50:06Z</time>
      </trkpt>
      <trkpt lat="43.2379" lon="5.62456">
        <ele>389.95190429688</ele>
        <time>2012-04-27T11:50:13Z</time>
      </trkpt>
      <trkpt lat="43.23782" lon="5.62453">
        <ele>388.51000976562</ele>
        <time>2012-04-27T11:50:17Z</time>
      </trkpt>
      <trkpt lat="43.23771" lon="5.62449">
        <ele>387.06799316406</ele>
        <time>2012-04-27T11:50:23Z</time>
      </trkpt>
      <trkpt lat="43.23759" lon="5.62442">
        <ele>384.18408203125</ele>
        <time>2012-04-27T11:50:25Z</time>
      </trkpt>
      <trkpt lat="43.23748" lon="5.62433">
        <ele>381.78063964844</ele>
        <time>2012-04-27T11:50:31Z</time>
      </trkpt>
      <trkpt lat="43.23728" lon="5.62421">
        <ele>377.45483398438</ele>
        <time>2012-04-27T11:50:35Z</time>
      </trkpt>
      <trkpt lat="43.2372" lon="5.62418">
        <ele>375.53210449219</ele>
        <time>2012-04-27T11:50:41Z</time>
      </trkpt>
      <trkpt lat="43.23711" lon="5.62412">
        <ele>374.57080078125</ele>
        <time>2012-04-27T11:50:43Z</time>
      </trkpt>
      <trkpt lat="43.23697" lon="5.62396">
        <ele>371.20629882812</ele>
        <time>2012-04-27T11:50:46Z</time>
      </trkpt>
      <trkpt lat="43.23679" lon="5.62386">
        <ele>367.36096191406</ele>
        <time>2012-04-27T11:50:48Z</time>
      </trkpt>
      <trkpt lat="43.23668" lon="5.62375">
        <ele>365.43835449219</ele>
        <time>2012-04-27T11:50:52Z</time>
      </trkpt>
      <trkpt lat="43.2366" lon="5.62365">
        <ele>363.99633789062</ele>
        <time>2012-04-27T11:50:56Z</time>
      </trkpt>
      <trkpt lat="43.23645" lon="5.62358">
        <ele>361.59313964844</ele>
        <time>2012-04-27T11:50:58Z</time>
      </trkpt>
      <trkpt lat="43.23635" lon="5.62347">
        <ele>360.15112304688</ele>
        <time>2012-04-27T11:51:00Z</time>
      </trkpt>
      <trkpt lat="43.23626" lon="5.62333">
        <ele>356.78637695312</ele>
        <time>2012-04-27T11:51:07Z</time>
      </trkpt>
      <trkpt lat="43.23623" lon="5.62329">
        <ele>355.8251953125</ele>
        <time>2012-04-27T11:51:10Z</time>
      </trkpt>
      <trkpt lat="43.23606" lon="5.62318">
        <ele>354.38317871094</ele>
        <time>2012-04-27T11:51:17Z</time>
      </trkpt>
      <trkpt lat="43.23606" lon="5.62319">
        <ele>354.38317871094</ele>
        <time>2012-04-27T11:51:19Z</time>
      </trkpt>
      <trkpt lat="43.23605" lon="5.62302">
        <ele>351.01843261719</ele>
        <time>2012-04-27T11:51:24Z</time>
      </trkpt>
      <trkpt lat="43.23596" lon="5.62286">
        <ele>347.65393066406</ele>
        <time>2012-04-27T11:51:26Z</time>
      </trkpt>
      <trkpt lat="43.23591" lon="5.62278">
        <ele>347.17321777344</ele>
        <time>2012-04-27T11:51:28Z</time>
      </trkpt>
      <trkpt lat="43.23581" lon="5.62262">
        <ele>342.84729003906</ele>
        <time>2012-04-27T11:51:32Z</time>
      </trkpt>
      <trkpt lat="43.23565" lon="5.62244">
        <ele>339.96337890625</ele>
        <time>2012-04-27T11:51:40Z</time>
      </trkpt>
      <trkpt lat="43.23563" lon="5.62245">
        <ele>339.00207519531</ele>
        <time>2012-04-27T11:51:41Z</time>
      </trkpt>
      <trkpt lat="43.23563" lon="5.62242">
        <ele>340.44409179688</ele>
        <time>2012-04-27T11:51:43Z</time>
      </trkpt>
      <trkpt lat="43.23558" lon="5.62237">
        <ele>337.07946777344</ele>
        <time>2012-04-27T11:51:45Z</time>
      </trkpt>
      <trkpt lat="43.23557" lon="5.6223">
        <ele>336.1181640625</ele>
        <time>2012-04-27T11:51:46Z</time>
      </trkpt>
      <trkpt lat="43.23554" lon="5.62221">
        <ele>335.15673828125</ele>
        <time>2012-04-27T11:51:51Z</time>
      </trkpt>
      <trkpt lat="43.2355" lon="5.62212">
        <ele>331.79211425781</ele>
        <time>2012-04-27T11:51:54Z</time>
      </trkpt>
      <trkpt lat="43.23548" lon="5.62207">
        <ele>331.3115234375</ele>
        <time>2012-04-27T11:52:00Z</time>
      </trkpt>
      <trkpt lat="43.23538" lon="5.62193">
        <ele>328.42761230469</ele>
        <time>2012-04-27T11:52:03Z</time>
      </trkpt>
      <trkpt lat="43.23533" lon="5.62188">
        <ele>328.42761230469</ele>
        <time>2012-04-27T11:52:14Z</time>
      </trkpt>
      <trkpt lat="43.23512" lon="5.62174">
        <ele>327.94677734375</ele>
        <time>2012-04-27T11:52:18Z</time>
      </trkpt>
      <trkpt lat="43.23504" lon="5.62168">
        <ele>326.02416992188</ele>
        <time>2012-04-27T11:52:24Z</time>
      </trkpt>
      <trkpt lat="43.23489" lon="5.62156">
        <ele>325.06298828125</ele>
        <time>2012-04-27T11:52:28Z</time>
      </trkpt>
      <trkpt lat="43.23465" lon="5.62154">
        <ele>321.69836425781</ele>
        <time>2012-04-27T11:52:30Z</time>
      </trkpt>
      <trkpt lat="43.23437" lon="5.6215">
        <ele>319.29504394531</ele>
        <time>2012-04-27T11:52:33Z</time>
      </trkpt>
      <trkpt lat="43.23426" lon="5.62148">
        <ele>317.37243652344</ele>
        <time>2012-04-27T11:52:38Z</time>
      </trkpt>
      <trkpt lat="43.23414" lon="5.62147">
        <ele>316.89172363281</ele>
        <time>2012-04-27T11:52:41Z</time>
      </trkpt>
      <trkpt lat="43.23379" lon="5.62151">
        <ele>314.96911621094</ele>
        <time>2012-04-27T11:52:45Z</time>
      </trkpt>
      <trkpt lat="43.23375" lon="5.62149">
        <ele>314.96911621094</ele>
        <time>2012-04-27T11:52:47Z</time>
      </trkpt>
      <trkpt lat="43.23354" lon="5.62119">
        <ele>311.6044921875</ele>
        <time>2012-04-27T11:52:49Z</time>
      </trkpt>
      <trkpt lat="43.23339" lon="5.62095">
        <ele>309.68188476562</ele>
        <time>2012-04-27T11:52:53Z</time>
      </trkpt>
      <trkpt lat="43.23333" lon="5.62077">
        <ele>307.27856445312</ele>
        <time>2012-04-27T11:52:56Z</time>
      </trkpt>
      <trkpt lat="43.23327" lon="5.62068">
        <ele>307.27856445312</ele>
        <time>2012-04-27T11:52:58Z</time>
      </trkpt>
      <trkpt lat="43.23291" lon="5.62051">
        <ele>304.39465332031</ele>
        <time>2012-04-27T11:53:00Z</time>
      </trkpt>
      <trkpt lat="43.23266" lon="5.62038">
        <ele>301.02990722656</ele>
        <time>2012-04-27T11:53:04Z</time>
      </trkpt>
      <trkpt lat="43.23224" lon="5.62041">
        <ele>297.66540527344</ele>
        <time>2012-04-27T11:53:09Z</time>
      </trkpt>
      <trkpt lat="43.23215" lon="5.62043">
        <ele>297.66540527344</ele>
        <time>2012-04-27T11:53:14Z</time>
      </trkpt>
      <trkpt lat="43.232" lon="5.62042">
        <ele>296.22351074219</ele>
        <time>2012-04-27T11:53:20Z</time>
      </trkpt>
      <trkpt lat="43.23181" lon="5.62028">
        <ele>294.30078125</ele>
        <time>2012-04-27T11:53:22Z</time>
      </trkpt>
      <trkpt lat="43.23182" lon="5.61996">
        <ele>291.41674804688</ele>
        <time>2012-04-27T11:53:25Z</time>
      </trkpt>
      <trkpt lat="43.23194" lon="5.61979">
        <ele>289.01354980469</ele>
        <time>2012-04-27T11:53:27Z</time>
      </trkpt>
      <trkpt lat="43.23201" lon="5.61955">
        <ele>284.68762207031</ele>
        <time>2012-04-27T11:53:30Z</time>
      </trkpt>
      <trkpt lat="43.23202" lon="5.6195">
        <ele>284.68762207031</ele>
        <time>2012-04-27T11:53:33Z</time>
      </trkpt>
      <trkpt lat="43.2319" lon="5.61933">
        <ele>282.28430175781</ele>
        <time>2012-04-27T11:53:38Z</time>
      </trkpt>
      <trkpt lat="43.23179" lon="5.61921">
        <ele>281.32299804688</ele>
        <time>2012-04-27T11:53:43Z</time>
      </trkpt>
      <trkpt lat="43.23159" lon="5.61918">
        <ele>279.880859375</ele>
        <time>2012-04-27T11:53:49Z</time>
      </trkpt>
      <trkpt lat="43.2315" lon="5.6192">
        <ele>279.880859375</ele>
        <time>2012-04-27T11:53:52Z</time>
      </trkpt>
      <trkpt lat="43.2314" lon="5.61906">
        <ele>278.43896484375</ele>
        <time>2012-04-27T11:53:56Z</time>
      </trkpt>
      <trkpt lat="43.23133" lon="5.61887">
        <ele>276.9970703125</ele>
        <time>2012-04-27T11:53:59Z</time>
      </trkpt>
      <trkpt lat="43.23132" lon="5.61871">
        <ele>276.51635742188</ele>
        <time>2012-04-27T11:54:02Z</time>
      </trkpt>
      <trkpt lat="43.23143" lon="5.61849">
        <ele>274.11303710938</ele>
        <time>2012-04-27T11:54:03Z</time>
      </trkpt>
      <trkpt lat="43.23147" lon="5.61843">
        <ele>273.63244628906</ele>
        <time>2012-04-27T11:54:07Z</time>
      </trkpt>
      <trkpt lat="43.23144" lon="5.6182">
        <ele>273.15185546875</ele>
        <time>2012-04-27T11:54:10Z</time>
      </trkpt>
      <trkpt lat="43.23132" lon="5.61818">
        <ele>271.70971679688</ele>
        <time>2012-04-27T11:54:14Z</time>
      </trkpt>
      <trkpt lat="43.23109" lon="5.61806">
        <ele>270.26770019531</ele>
        <time>2012-04-27T11:54:15Z</time>
      </trkpt>
      <trkpt lat="43.23092" lon="5.61772">
        <ele>270.26770019531</ele>
        <time>2012-04-27T11:54:21Z</time>
      </trkpt>
      <trkpt lat="43.23068" lon="5.61769">
        <ele>266.42248535156</ele>
        <time>2012-04-27T11:54:33Z</time>
      </trkpt>
      <trkpt lat="43.23059" lon="5.61777">
        <ele>264.98059082031</ele>
        <time>2012-04-27T11:54:36Z</time>
      </trkpt>
      <trkpt lat="43.23042" lon="5.61782">
        <ele>264.49987792969</ele>
        <time>2012-04-27T11:54:39Z</time>
      </trkpt>
      <trkpt lat="43.23015" lon="5.61759">
        <ele>263.53857421875</ele>
        <time>2012-04-27T11:54:44Z</time>
      </trkpt>
      <trkpt lat="43.23009" lon="5.61735">
        <ele>262.09655761719</ele>
        <time>2012-04-27T11:54:46Z</time>
      </trkpt>
      <trkpt lat="43.23013" lon="5.6171">
        <ele>262.09655761719</ele>
        <time>2012-04-27T11:54:48Z</time>
      </trkpt>
      <trkpt lat="43.23005" lon="5.61697">
        <ele>260.17395019531</ele>
        <time>2012-04-27T11:54:50Z</time>
      </trkpt>
      <trkpt lat="43.22998" lon="5.61692">
        <ele>258.73193359375</ele>
        <time>2012-04-27T11:54:52Z</time>
      </trkpt>
      <trkpt lat="43.22971" lon="5.61688">
        <ele>256.80932617188</ele>
        <time>2012-04-27T11:54:54Z</time>
      </trkpt>
      <trkpt lat="43.22961" lon="5.61675">
        <ele>254.88659667969</ele>
        <time>2012-04-27T11:54:55Z</time>
      </trkpt>
      <trkpt lat="43.22948" lon="5.61646">
        <ele>252.96398925781</ele>
        <time>2012-04-27T11:55:00Z</time>
      </trkpt>
      <trkpt lat="43.22948" lon="5.61633">
        <ele>252.4833984375</ele>
        <time>2012-04-27T11:55:03Z</time>
      </trkpt>
      <trkpt lat="43.22949" lon="5.61598">
        <ele>251.52209472656</ele>
        <time>2012-04-27T11:55:06Z</time>
      </trkpt>
      <trkpt lat="43.22936" lon="5.61579">
        <ele>247.19604492188</ele>
        <time>2012-04-27T11:55:10Z</time>
      </trkpt>
      <trkpt lat="43.22911" lon="5.6158">
        <ele>243.35083007812</ele>
        <time>2012-04-27T11:55:13Z</time>
      </trkpt>
      <trkpt lat="43.22908" lon="5.61588">
        <ele>242.3896484375</ele>
        <time>2012-04-27T11:55:16Z</time>
      </trkpt>
      <trkpt lat="43.22901" lon="5.61605">
        <ele>240.94763183594</ele>
        <time>2012-04-27T11:55:18Z</time>
      </trkpt>
      <trkpt lat="43.22899" lon="5.61616">
        <ele>239.50549316406</ele>
        <time>2012-04-27T11:55:22Z</time>
      </trkpt>
      <trkpt lat="43.22887" lon="5.61627">
        <ele>238.54431152344</ele>
        <time>2012-04-27T11:55:25Z</time>
      </trkpt>
      <trkpt lat="43.22872" lon="5.61625">
        <ele>236.14099121094</ele>
        <time>2012-04-27T11:55:31Z</time>
      </trkpt>
      <trkpt lat="43.22863" lon="5.61629">
        <ele>235.1796875</ele>
        <time>2012-04-27T11:55:33Z</time>
      </trkpt>
      <trkpt lat="43.22856" lon="5.61635">
        <ele>234.69909667969</ele>
        <time>2012-04-27T11:55:35Z</time>
      </trkpt>
      <trkpt lat="43.22842" lon="5.61622">
        <ele>232.29577636719</ele>
        <time>2012-04-27T11:55:38Z</time>
      </trkpt>
      <trkpt lat="43.22843" lon="5.61605">
        <ele>230.373046875</ele>
        <time>2012-04-27T11:55:40Z</time>
      </trkpt>
      <trkpt lat="43.22825" lon="5.61594">
        <ele>229.41174316406</ele>
        <time>2012-04-27T11:55:44Z</time>
      </trkpt>
      <trkpt lat="43.2282" lon="5.61593">
        <ele>228.45043945312</ele>
        <time>2012-04-27T11:55:45Z</time>
      </trkpt>
      <trkpt lat="43.228" lon="5.61596">
        <ele>226.04711914062</ele>
        <time>2012-04-27T11:55:48Z</time>
      </trkpt>
      <trkpt lat="43.2279" lon="5.61598">
        <ele>225.0859375</ele>
        <time>2012-04-27T11:55:51Z</time>
      </trkpt>
      <trkpt lat="43.22779" lon="5.61599">
        <ele>224.60522460938</ele>
        <time>2012-04-27T11:55:55Z</time>
      </trkpt>
      <trkpt lat="43.22755" lon="5.61598">
        <ele>222.20178222656</ele>
        <time>2012-04-27T11:55:57Z</time>
      </trkpt>
      <trkpt lat="43.22735" lon="5.61568">
        <ele>219.79858398438</ele>
        <time>2012-04-27T11:56:01Z</time>
      </trkpt>
      <trkpt lat="43.22737" lon="5.61564">
        <ele>219.31799316406</ele>
        <time>2012-04-27T11:56:04Z</time>
      </trkpt>
      <trkpt lat="43.22741" lon="5.61559">
        <ele>218.35656738281</ele>
        <time>2012-04-27T11:56:15Z</time>
      </trkpt>
      <trkpt lat="43.22745" lon="5.61551">
        <ele>217.39538574219</ele>
        <time>2012-04-27T11:56:28Z</time>
      </trkpt>
      <trkpt lat="43.22746" lon="5.61547">
        <ele>216.91467285156</ele>
        <time>2012-04-27T11:56:45Z</time>
      </trkpt>
      <trkpt lat="43.22748" lon="5.61517">
        <ele>214.51123046875</ele>
        <time>2012-04-27T11:56:50Z</time>
      </trkpt>
      <trkpt lat="43.22752" lon="5.61502">
        <ele>212.10803222656</ele>
        <time>2012-04-27T11:57:07Z</time>
      </trkpt>
      <trkpt lat="43.2273" lon="5.61484">
        <ele>208.74340820312</ele>
        <time>2012-04-27T11:57:20Z</time>
      </trkpt>
      <trkpt lat="43.22714" lon="5.61477">
        <ele>206.82067871094</ele>
        <time>2012-04-27T11:57:40Z</time>
      </trkpt>
      <trkpt lat="43.22679" lon="5.61479">
        <ele>204.41748046875</ele>
        <time>2012-04-27T11:58:01Z</time>
      </trkpt>
      <trkpt lat="43.22662" lon="5.61485">
        <ele>202.49487304688</ele>
        <time>2012-04-27T11:58:21Z</time>
      </trkpt>
      <trkpt lat="43.22639" lon="5.61498">
        <ele>198.1689453125</ele>
        <time>2012-04-27T11:58:41Z</time>
      </trkpt>
      <trkpt lat="43.22626" lon="5.61515">
        <ele>196.24633789062</ele>
        <time>2012-04-27T11:58:54Z</time>
      </trkpt>
      <trkpt lat="43.22621" lon="5.61526">
        <ele>194.80432128906</ele>
        <time>2012-04-27T11:59:00Z</time>
      </trkpt>
      <trkpt lat="43.22615" lon="5.61544">
        <ele>192.88171386719</ele>
        <time>2012-04-27T11:59:11Z</time>
      </trkpt>
      <trkpt lat="43.22597" lon="5.61559">
        <ele>190.958984375</ele>
        <time>2012-04-27T11:59:22Z</time>
      </trkpt>
      <trkpt lat="43.22586" lon="5.61573">
        <ele>189.99768066406</ele>
        <time>2012-04-27T11:59:28Z</time>
      </trkpt>
      <trkpt lat="43.22568" lon="5.61594">
        <ele>187.11376953125</ele>
        <time>2012-04-27T11:59:36Z</time>
      </trkpt>
      <trkpt lat="43.22558" lon="5.61603">
        <ele>186.15246582031</ele>
        <time>2012-04-27T11:59:40Z</time>
      </trkpt>
      <trkpt lat="43.22548" lon="5.61612">
        <ele>185.67175292969</ele>
        <time>2012-04-27T11:59:44Z</time>
      </trkpt>
      <trkpt lat="43.22535" lon="5.6164">
        <ele>183.7490234375</ele>
        <time>2012-04-27T11:59:51Z</time>
      </trkpt>
      <trkpt lat="43.22539" lon="5.61663">
        <ele>183.26843261719</ele>
        <time>2012-04-27T12:00:10Z</time>
      </trkpt>
      <trkpt lat="43.22541" lon="5.61681">
        <ele>182.78784179688</ele>
        <time>2012-04-27T12:01:22Z</time>
      </trkpt>
      <trkpt lat="43.22542" lon="5.61699">
        <ele>181.82641601562</ele>
        <time>2012-04-27T12:01:42Z</time>
      </trkpt>
      <trkpt lat="43.22538" lon="5.61729">
        <ele>182.30712890625</ele>
        <time>2012-04-27T12:02:05Z</time>
      </trkpt>
      <trkpt lat="43.22519" lon="5.61747">
        <ele>181.82641601562</ele>
        <time>2012-04-27T12:02:23Z</time>
      </trkpt>
      <trkpt lat="43.22499" lon="5.61735">
        <ele>180.38452148438</ele>
        <time>2012-04-27T12:02:41Z</time>
      </trkpt>
      <trkpt lat="43.22471" lon="5.61719">
        <ele>177.02001953125</ele>
        <time>2012-04-27T12:03:05Z</time>
      </trkpt>
      <trkpt lat="43.22459" lon="5.61713">
        <ele>176.53930664062</ele>
        <time>2012-04-27T12:03:18Z</time>
      </trkpt>
      <trkpt lat="43.22444" lon="5.61711">
        <ele>175.09729003906</ele>
        <time>2012-04-27T12:03:39Z</time>
      </trkpt>
      <trkpt lat="43.22433" lon="5.61717">
        <ele>174.61657714844</ele>
        <time>2012-04-27T12:04:05Z</time>
      </trkpt>
      <trkpt lat="43.22419" lon="5.61724">
        <ele>174.61657714844</ele>
        <time>2012-04-27T12:04:21Z</time>
      </trkpt>
      <trkpt lat="43.22404" lon="5.61729">
        <ele>174.13586425781</ele>
        <time>2012-04-27T12:04:36Z</time>
      </trkpt>
      <trkpt lat="43.22383" lon="5.61716">
        <ele>171.73266601562</ele>
        <time>2012-04-27T12:04:57Z</time>
      </trkpt>
      <trkpt lat="43.2236" lon="5.61713">
        <ele>171.25207519531</ele>
        <time>2012-04-27T12:05:03Z</time>
      </trkpt>
      <trkpt lat="43.22336" lon="5.61731">
        <ele>171.25207519531</ele>
        <time>2012-04-27T12:05:08Z</time>
      </trkpt>
      <trkpt lat="43.22332" lon="5.61747">
        <ele>169.81005859375</ele>
        <time>2012-04-27T12:05:09Z</time>
      </trkpt>
      <trkpt lat="43.22334" lon="5.61774">
        <ele>167.40673828125</ele>
        <time>2012-04-27T12:05:11Z</time>
      </trkpt>
      <trkpt lat="43.22337" lon="5.61793">
        <ele>167.40673828125</ele>
        <time>2012-04-27T12:05:15Z</time>
      </trkpt>
      <trkpt lat="43.22338" lon="5.61816">
        <ele>165.96472167969</ele>
        <time>2012-04-27T12:05:21Z</time>
      </trkpt>
      <trkpt lat="43.22337" lon="5.61823">
        <ele>165.48413085938</ele>
        <time>2012-04-27T12:05:37Z</time>
      </trkpt>
      <trkpt lat="43.22322" lon="5.61846">
        <ele>164.04211425781</ele>
        <time>2012-04-27T12:05:50Z</time>
      </trkpt>
      <trkpt lat="43.22313" lon="5.61863">
        <ele>165.48413085938</ele>
        <time>2012-04-27T12:06:06Z</time>
      </trkpt>
      <trkpt lat="43.22315" lon="5.61885">
        <ele>163.08081054688</ele>
        <time>2012-04-27T12:06:15Z</time>
      </trkpt>
      <trkpt lat="43.22318" lon="5.61889">
        <ele>163.08081054688</ele>
        <time>2012-04-27T12:06:30Z</time>
      </trkpt>
      <trkpt lat="43.22328" lon="5.61917">
        <ele>164.04211425781</ele>
        <time>2012-04-27T12:06:34Z</time>
      </trkpt>
      <trkpt lat="43.22337" lon="5.61991">
        <ele>162.11950683594</ele>
      </trkpt>
      <trkpt lat="43.2234" lon="5.62009">
        <ele>163.08081054688</ele>
      </trkpt>
      <trkpt lat="43.22339" lon="5.62021">
        <ele>161.63891601562</ele>
      </trkpt>
      <trkpt lat="43.22338" lon="5.62043">
        <ele>157.31286621094</ele>
      </trkpt>
      <trkpt lat="43.22337" lon="5.62055">
        <ele>155.87097167969</ele>
      </trkpt>
      <trkpt lat="43.22335" lon="5.62067">
        <ele>154.90954589844</ele>
      </trkpt>
      <trkpt lat="43.22331" lon="5.62079">
        <ele>153.94836425781</ele>
      </trkpt>
      <trkpt lat="43.22327" lon="5.62091">
        <ele>152.02575683594</ele>
      </trkpt>
      <trkpt lat="43.22326" lon="5.62103">
        <ele>151.544921875</ele>
      </trkpt>
      <trkpt lat="43.22323" lon="5.62111">
        <ele>151.06420898438</ele>
      </trkpt>
      <trkpt lat="43.22308" lon="5.62137">
        <ele>147.69970703125</ele>
      </trkpt>
      <trkpt lat="43.22298" lon="5.62152">
        <ele>144.81579589844</ele>
      </trkpt>
      <trkpt lat="43.22289" lon="5.62163">
        <ele>143.37365722656</ele>
      </trkpt>
      <trkpt lat="43.2229" lon="5.6218">
        <ele>142.41247558594</ele>
      </trkpt>
      <trkpt lat="43.22285" lon="5.62193">
        <ele>141.45104980469</ele>
      </trkpt>
      <trkpt lat="43.22282" lon="5.62213">
        <ele>140.00915527344</ele>
      </trkpt>
      <trkpt lat="43.22278" lon="5.62228">
        <ele>139.0478515625</ele>
      </trkpt>
      <trkpt lat="43.22266" lon="5.62253">
        <ele>137.12524414062</ele>
      </trkpt>
      <trkpt lat="43.22255" lon="5.62267">
        <ele>135.20251464844</ele>
      </trkpt>
      <trkpt lat="43.22239" lon="5.62294">
        <ele>131.837890625</ele>
      </trkpt>
      <trkpt lat="43.22234" lon="5.62306">
        <ele>131.35729980469</ele>
      </trkpt>
      <trkpt lat="43.22232" lon="5.62318">
        <ele>130.39599609375</ele>
      </trkpt>
      <trkpt lat="43.22229" lon="5.62335">
        <ele>128.47338867188</ele>
      </trkpt>
      <trkpt lat="43.22224" lon="5.62346">
        <ele>127.99255371094</ele>
      </trkpt>
      <trkpt lat="43.22215" lon="5.62371">
        <ele>124.62805175781</ele>
      </trkpt>
      <trkpt lat="43.22213" lon="5.62378">
        <ele>124.14733886719</ele>
      </trkpt>
      <trkpt lat="43.22207" lon="5.62401">
        <ele>123.18615722656</ele>
      </trkpt>
      <trkpt lat="43.22199" lon="5.62423">
        <ele>122.22473144531</ele>
      </trkpt>
      <trkpt lat="43.22192" lon="5.6245">
        <ele>121.744140625</ele>
      </trkpt>
      <trkpt lat="43.22185" lon="5.62459">
        <ele>120.78283691406</ele>
      </trkpt>
      <trkpt lat="43.22168" lon="5.62457">
        <ele>118.86010742188</ele>
      </trkpt>
      <trkpt lat="43.22157" lon="5.62441">
        <ele>117.41821289062</ele>
      </trkpt>
      <trkpt lat="43.22134" lon="5.62401">
        <ele>119.3408203125</ele>
      </trkpt>
      <trkpt lat="43.22114" lon="5.62405">
        <ele>120.30212402344</ele>
      </trkpt>
      <trkpt lat="43.2209" lon="5.6242">
        <ele>122.22473144531</ele>
      </trkpt>
      <trkpt lat="43.22083" lon="5.62424">
        <ele>123.18615722656</ele>
      </trkpt>
      <trkpt lat="43.22059" lon="5.62427">
        <ele>125.58935546875</ele>
      </trkpt>
      <trkpt lat="43.22044" lon="5.62443">
        <ele>127.03137207031</ele>
      </trkpt>
      <trkpt lat="43.2202" lon="5.62461">
        <ele>129.91528320312</ele>
      </trkpt>
      <trkpt lat="43.21995" lon="5.62474">
        <ele>133.27990722656</ele>
      </trkpt>
      <trkpt lat="43.2197" lon="5.62476">
        <ele>135.68310546875</ele>
      </trkpt>
      <trkpt lat="43.21946" lon="5.62489">
        <ele>137.60583496094</ele>
      </trkpt>
      <trkpt lat="43.2193" lon="5.62497">
        <ele>138.56726074219</ele>
      </trkpt>
      <trkpt lat="43.21923" lon="5.62502">
        <ele>140.00915527344</ele>
      </trkpt>
      <trkpt lat="43.21909" lon="5.62514">
        <ele>140.97045898438</ele>
      </trkpt>
      <trkpt lat="43.21897" lon="5.62525">
        <ele>142.41247558594</ele>
      </trkpt>
      <trkpt lat="43.21891" lon="5.62534">
        <ele>145.29638671875</ele>
      </trkpt>
      <trkpt lat="43.21885" lon="5.62546">
        <ele>144.81579589844</ele>
      </trkpt>
      <trkpt lat="43.21886" lon="5.62551">
        <ele>145.77709960938</ele>
      </trkpt>
      <trkpt lat="43.2189" lon="5.62554">
        <ele>145.77709960938</ele>
      </trkpt>
      <trkpt lat="43.219" lon="5.62554">
        <ele>146.73840332031</ele>
      </trkpt>
      <trkpt lat="43.21916" lon="5.62555">
        <ele>148.18041992188</ele>
      </trkpt>
      <trkpt lat="43.21932" lon="5.62556">
        <ele>150.10302734375</ele>
      </trkpt>
      <trkpt lat="43.21963" lon="5.62554">
        <ele>152.50634765625</ele>
      </trkpt>
      <trkpt lat="43.21997" lon="5.6256">
        <ele>155.87097167969</ele>
      </trkpt>
      <trkpt lat="43.22023" lon="5.62563">
        <ele>158.75476074219</ele>
      </trkpt>
      <trkpt lat="43.2205" lon="5.6256">
        <ele>162.11950683594</ele>
      </trkpt>
      <trkpt lat="43.22086" lon="5.62554">
        <ele>165.00341796875</ele>
      </trkpt>
      <trkpt lat="43.22104" lon="5.62559">
        <ele>168.36804199219</ele>
      </trkpt>
      <trkpt lat="43.22132" lon="5.62581">
        <ele>170.29064941406</ele>
      </trkpt>
      <trkpt lat="43.22171" lon="5.62604">
        <ele>173.6552734375</ele>
      </trkpt>
      <trkpt lat="43.22192" lon="5.62625">
        <ele>175.57788085938</ele>
      </trkpt>
      <trkpt lat="43.22208" lon="5.62654">
        <ele>177.50061035156</ele>
      </trkpt>
      <trkpt lat="43.22218" lon="5.62701">
        <ele>177.98120117188</ele>
      </trkpt>
      <trkpt lat="43.22211" lon="5.62712">
        <ele>177.98120117188</ele>
      </trkpt>
      <trkpt lat="43.22198" lon="5.62718">
        <ele>174.61657714844</ele>
      </trkpt>
      <trkpt lat="43.22195" lon="5.6272">
        <ele>174.61657714844</ele>
      </trkpt>
      <trkpt lat="43.22189" lon="5.62726">
        <ele>177.02001953125</ele>
      </trkpt>
      <trkpt lat="43.2218" lon="5.62734">
        <ele>177.98120117188</ele>
      </trkpt>
      <trkpt lat="43.22171" lon="5.62749">
        <ele>177.02001953125</ele>
      </trkpt>
      <trkpt lat="43.22158" lon="5.62807">
        <ele>178.4619140625</ele>
      </trkpt>
      <trkpt lat="43.22148" lon="5.62855">
        <ele>177.98120117188</ele>
      </trkpt>
      <trkpt lat="43.22147" lon="5.62891">
        <ele>177.50061035156</ele>
      </trkpt>
      <trkpt lat="43.22149" lon="5.62892">
        <ele>177.50061035156</ele>
      </trkpt>
      <trkpt lat="43.2218" lon="5.62905">
        <ele>177.50061035156</ele>
      </trkpt>
      <trkpt lat="43.22182" lon="5.62921">
        <ele>176.53930664062</ele>
      </trkpt>
    </trkseg>
  </trk>
</gpx>